<?xml version="1.0" encoding="UTF-8" standalone="no" ?>
<gpx xmlns="http://www.topografix.com/GPX/1/1" xmlns:xsi="http://www.w3.org/2001/XMLSchema-instance" xsi:schemaLocation="http://www.topografix.com/GPX/1/1 http://www.topografix.com/GPX/1/1/gpx.xsd" version="1.1" creator="VisuGPX - https://www.visugpx.com">
  <metadata>
    <name>La vierge et l\'ermitage 2</name>
    <desc><![CDATA[La vierge et l\'ermitage 2, avec le bois de darel]]></desc>
  </metadata>
  <trk>
    <name><![CDATA[29-DEC-12 12:46:47]]></name>
    <trkseg>
      <trkpt lat="44.18844" lon="0.61463">
        <ele>47.72</ele>
        <time>2012-12-29T07:32:46Z</time>
      </trkpt>
      <trkpt lat="44.18844" lon="0.61463">
        <ele>47.72</ele>
        <time>2012-12-29T07:32:47Z</time>
      </trkpt>
      <trkpt lat="44.18844" lon="0.61463">
        <ele>45.8</ele>
        <time>2012-12-29T07:32:50Z</time>
      </trkpt>
      <trkpt lat="44.18841" lon="0.61461">
        <ele>45.8</ele>
        <time>2012-12-29T07:32:56Z</time>
      </trkpt>
      <trkpt lat="44.18843" lon="0.61446">
        <ele>45.8</ele>
        <time>2012-12-29T07:33:05Z</time>
      </trkpt>
      <trkpt lat="44.18845" lon="0.61446">
        <ele>45.8</ele>
        <time>2012-12-29T07:33:06Z</time>
      </trkpt>
      <trkpt lat="44.18863" lon="0.61443">
        <ele>45.8</ele>
        <time>2012-12-29T07:33:12Z</time>
      </trkpt>
      <trkpt lat="44.18871" lon="0.61426">
        <ele>45.32</ele>
        <time>2012-12-29T07:33:17Z</time>
      </trkpt>
      <trkpt lat="44.18874" lon="0.6136">
        <ele>45.32</ele>
        <time>2012-12-29T07:33:31Z</time>
      </trkpt>
      <trkpt lat="44.18874" lon="0.61347">
        <ele>45.8</ele>
        <time>2012-12-29T07:33:34Z</time>
      </trkpt>
      <trkpt lat="44.18916" lon="0.6133">
        <ele>45.32</ele>
        <time>2012-12-29T07:33:47Z</time>
      </trkpt>
      <trkpt lat="44.18979" lon="0.61319">
        <ele>45.32</ele>
        <time>2012-12-29T07:34:04Z</time>
      </trkpt>
      <trkpt lat="44.19007" lon="0.61327">
        <ele>45.32</ele>
        <time>2012-12-29T07:34:13Z</time>
      </trkpt>
      <trkpt lat="44.19026" lon="0.61371">
        <ele>45.32</ele>
        <time>2012-12-29T07:34:24Z</time>
      </trkpt>
      <trkpt lat="44.19056" lon="0.61381">
        <ele>44.84</ele>
        <time>2012-12-29T07:34:33Z</time>
      </trkpt>
      <trkpt lat="44.19069" lon="0.6137">
        <ele>45.32</ele>
        <time>2012-12-29T07:34:38Z</time>
      </trkpt>
      <trkpt lat="44.19093" lon="0.61328">
        <ele>45.8</ele>
        <time>2012-12-29T07:34:50Z</time>
      </trkpt>
      <trkpt lat="44.19132" lon="0.61293">
        <ele>45.8</ele>
        <time>2012-12-29T07:35:03Z</time>
      </trkpt>
      <trkpt lat="44.19187" lon="0.61273">
        <ele>45.32</ele>
        <time>2012-12-29T07:35:18Z</time>
      </trkpt>
      <trkpt lat="44.1927" lon="0.61264">
        <ele>43.88</ele>
        <time>2012-12-29T07:35:38Z</time>
      </trkpt>
      <trkpt lat="44.19334" lon="0.61259">
        <ele>43.88</ele>
        <time>2012-12-29T07:35:54Z</time>
      </trkpt>
      <trkpt lat="44.19371" lon="0.61261">
        <ele>44.36</ele>
        <time>2012-12-29T07:36:05Z</time>
      </trkpt>
      <trkpt lat="44.1941" lon="0.61258">
        <ele>43.4</ele>
        <time>2012-12-29T07:36:19Z</time>
      </trkpt>
      <trkpt lat="44.19423" lon="0.61262">
        <ele>44.36</ele>
        <time>2012-12-29T07:36:25Z</time>
      </trkpt>
      <trkpt lat="44.19453" lon="0.61264">
        <ele>46.28</ele>
        <time>2012-12-29T07:36:36Z</time>
      </trkpt>
      <trkpt lat="44.19463" lon="0.6127">
        <ele>46.76</ele>
        <time>2012-12-29T07:36:41Z</time>
      </trkpt>
      <trkpt lat="44.19473" lon="0.61266">
        <ele>47.24</ele>
        <time>2012-12-29T07:36:47Z</time>
      </trkpt>
      <trkpt lat="44.19481" lon="0.61258">
        <ele>48.68</ele>
        <time>2012-12-29T07:36:52Z</time>
      </trkpt>
      <trkpt lat="44.19492" lon="0.6127">
        <ele>47.72</ele>
        <time>2012-12-29T07:36:58Z</time>
      </trkpt>
      <trkpt lat="44.19502" lon="0.61277">
        <ele>48.2</ele>
        <time>2012-12-29T07:37:01Z</time>
      </trkpt>
      <trkpt lat="44.19516" lon="0.61278">
        <ele>48.68</ele>
        <time>2012-12-29T07:37:05Z</time>
      </trkpt>
      <trkpt lat="44.19527" lon="0.61264">
        <ele>48.2</ele>
        <time>2012-12-29T07:37:10Z</time>
      </trkpt>
      <trkpt lat="44.19526" lon="0.61229">
        <ele>49.65</ele>
        <time>2012-12-29T07:37:21Z</time>
      </trkpt>
      <trkpt lat="44.1953" lon="0.6122">
        <ele>49.65</ele>
        <time>2012-12-29T07:37:25Z</time>
      </trkpt>
      <trkpt lat="44.19554" lon="0.61215">
        <ele>46.76</ele>
        <time>2012-12-29T07:37:31Z</time>
      </trkpt>
      <trkpt lat="44.19591" lon="0.61211">
        <ele>44.36</ele>
        <time>2012-12-29T07:37:37Z</time>
      </trkpt>
      <trkpt lat="44.19609" lon="0.61209">
        <ele>43.88</ele>
        <time>2012-12-29T07:37:40Z</time>
      </trkpt>
      <trkpt lat="44.1967" lon="0.61207">
        <ele>41.47</ele>
        <time>2012-12-29T07:37:50Z</time>
      </trkpt>
      <trkpt lat="44.19696" lon="0.61205">
        <ele>41.47</ele>
        <time>2012-12-29T07:37:55Z</time>
      </trkpt>
      <trkpt lat="44.19709" lon="0.61203">
        <ele>41.95</ele>
        <time>2012-12-29T07:37:58Z</time>
      </trkpt>
      <trkpt lat="44.19781" lon="0.61196">
        <ele>41.47</ele>
        <time>2012-12-29T07:38:15Z</time>
      </trkpt>
      <trkpt lat="44.1982" lon="0.61189">
        <ele>41.95</ele>
        <time>2012-12-29T07:38:25Z</time>
      </trkpt>
      <trkpt lat="44.1982" lon="0.61181">
        <ele>41.47</ele>
        <time>2012-12-29T07:38:28Z</time>
      </trkpt>
      <trkpt lat="44.19819" lon="0.61171">
        <ele>41.95</ele>
        <time>2012-12-29T07:38:31Z</time>
      </trkpt>
      <trkpt lat="44.19828" lon="0.61167">
        <ele>42.92</ele>
        <time>2012-12-29T07:38:35Z</time>
      </trkpt>
      <trkpt lat="44.1988" lon="0.61158">
        <ele>43.4</ele>
        <time>2012-12-29T07:38:51Z</time>
      </trkpt>
      <trkpt lat="44.19945" lon="0.61144">
        <ele>42.92</ele>
        <time>2012-12-29T07:39:10Z</time>
      </trkpt>
      <trkpt lat="44.20003" lon="0.61127">
        <ele>42.92</ele>
        <time>2012-12-29T07:39:26Z</time>
      </trkpt>
      <trkpt lat="44.20062" lon="0.61092">
        <ele>42.92</ele>
        <time>2012-12-29T07:39:42Z</time>
      </trkpt>
      <trkpt lat="44.20131" lon="0.61028">
        <ele>42.92</ele>
        <time>2012-12-29T07:40:03Z</time>
      </trkpt>
      <trkpt lat="44.20197" lon="0.60988">
        <ele>43.4</ele>
        <time>2012-12-29T07:40:22Z</time>
      </trkpt>
      <trkpt lat="44.202" lon="0.60987">
        <ele>43.88</ele>
        <time>2012-12-29T07:40:23Z</time>
      </trkpt>
      <trkpt lat="44.20203" lon="0.60997">
        <ele>42.92</ele>
        <time>2012-12-29T07:40:27Z</time>
      </trkpt>
      <trkpt lat="44.20204" lon="0.61004">
        <ele>42.92</ele>
        <time>2012-12-29T07:40:29Z</time>
      </trkpt>
      <trkpt lat="44.20219" lon="0.61021">
        <ele>41.47</ele>
        <time>2012-12-29T07:40:37Z</time>
      </trkpt>
      <trkpt lat="44.20222" lon="0.61021">
        <ele>41.95</ele>
        <time>2012-12-29T07:40:38Z</time>
      </trkpt>
      <trkpt lat="44.20241" lon="0.61019">
        <ele>41.47</ele>
        <time>2012-12-29T07:40:44Z</time>
      </trkpt>
      <trkpt lat="44.20246" lon="0.60977">
        <ele>40.99</ele>
        <time>2012-12-29T07:40:53Z</time>
      </trkpt>
      <trkpt lat="44.20265" lon="0.60951">
        <ele>40.99</ele>
        <time>2012-12-29T07:41:00Z</time>
      </trkpt>
      <trkpt lat="44.20289" lon="0.60943">
        <ele>40.99</ele>
        <time>2012-12-29T07:41:06Z</time>
      </trkpt>
      <trkpt lat="44.20356" lon="0.60913">
        <ele>41.47</ele>
        <time>2012-12-29T07:41:23Z</time>
      </trkpt>
      <trkpt lat="44.204" lon="0.60893">
        <ele>40.99</ele>
        <time>2012-12-29T07:41:34Z</time>
      </trkpt>
      <trkpt lat="44.20412" lon="0.60889">
        <ele>40.99</ele>
        <time>2012-12-29T07:41:37Z</time>
      </trkpt>
      <trkpt lat="44.2047" lon="0.60864">
        <ele>41.95</ele>
        <time>2012-12-29T07:41:52Z</time>
      </trkpt>
      <trkpt lat="44.20506" lon="0.60852">
        <ele>41.47</ele>
        <time>2012-12-29T07:42:01Z</time>
      </trkpt>
      <trkpt lat="44.20517" lon="0.60845">
        <ele>41.47</ele>
        <time>2012-12-29T07:42:04Z</time>
      </trkpt>
      <trkpt lat="44.20533" lon="0.60838">
        <ele>40.99</ele>
        <time>2012-12-29T07:42:08Z</time>
      </trkpt>
      <trkpt lat="44.20628" lon="0.608">
        <ele>40.03</ele>
        <time>2012-12-29T07:42:31Z</time>
      </trkpt>
      <trkpt lat="44.20682" lon="0.60789">
        <ele>40.03</ele>
        <time>2012-12-29T07:42:44Z</time>
      </trkpt>
      <trkpt lat="44.20716" lon="0.6081">
        <ele>39.55</ele>
        <time>2012-12-29T07:42:53Z</time>
      </trkpt>
      <trkpt lat="44.20741" lon="0.60825">
        <ele>40.51</ele>
        <time>2012-12-29T07:43:00Z</time>
      </trkpt>
      <trkpt lat="44.20761" lon="0.60823">
        <ele>41.47</ele>
        <time>2012-12-29T07:43:05Z</time>
      </trkpt>
      <trkpt lat="44.2079" lon="0.60792">
        <ele>41.95</ele>
        <time>2012-12-29T07:43:14Z</time>
      </trkpt>
      <trkpt lat="44.20823" lon="0.60803">
        <ele>39.07</ele>
        <time>2012-12-29T07:43:20Z</time>
      </trkpt>
      <trkpt lat="44.20846" lon="0.60833">
        <ele>40.03</ele>
        <time>2012-12-29T07:43:26Z</time>
      </trkpt>
      <trkpt lat="44.20888" lon="0.60828">
        <ele>39.55</ele>
        <time>2012-12-29T07:43:35Z</time>
      </trkpt>
      <trkpt lat="44.20892" lon="0.60824">
        <ele>39.55</ele>
        <time>2012-12-29T07:43:36Z</time>
      </trkpt>
      <trkpt lat="44.20911" lon="0.60792">
        <ele>38.59</ele>
        <time>2012-12-29T07:43:42Z</time>
      </trkpt>
      <trkpt lat="44.20943" lon="0.60753">
        <ele>40.51</ele>
        <time>2012-12-29T07:43:52Z</time>
      </trkpt>
      <trkpt lat="44.20969" lon="0.6076">
        <ele>40.51</ele>
        <time>2012-12-29T07:43:59Z</time>
      </trkpt>
      <trkpt lat="44.2098" lon="0.6081">
        <ele>41.47</ele>
        <time>2012-12-29T07:44:09Z</time>
      </trkpt>
      <trkpt lat="44.20956" lon="0.60842">
        <ele>41.95</ele>
        <time>2012-12-29T07:44:19Z</time>
      </trkpt>
      <trkpt lat="44.20908" lon="0.60887">
        <ele>43.88</ele>
        <time>2012-12-29T07:44:36Z</time>
      </trkpt>
      <trkpt lat="44.20898" lon="0.60912">
        <ele>45.8</ele>
        <time>2012-12-29T07:44:43Z</time>
      </trkpt>
      <trkpt lat="44.20897" lon="0.60955">
        <ele>49.16</ele>
        <time>2012-12-29T07:44:54Z</time>
      </trkpt>
      <trkpt lat="44.20908" lon="0.61024">
        <ele>50.61</ele>
        <time>2012-12-29T07:45:10Z</time>
      </trkpt>
      <trkpt lat="44.20921" lon="0.61098">
        <ele>50.13</ele>
        <time>2012-12-29T07:45:26Z</time>
      </trkpt>
      <trkpt lat="44.20921" lon="0.61116">
        <ele>50.13</ele>
        <time>2012-12-29T07:45:30Z</time>
      </trkpt>
      <trkpt lat="44.20925" lon="0.61136">
        <ele>50.13</ele>
        <time>2012-12-29T07:45:36Z</time>
      </trkpt>
      <trkpt lat="44.20932" lon="0.61149">
        <ele>50.13</ele>
        <time>2012-12-29T07:45:40Z</time>
      </trkpt>
      <trkpt lat="44.2094" lon="0.61198">
        <ele>51.09</ele>
        <time>2012-12-29T07:45:52Z</time>
      </trkpt>
      <trkpt lat="44.20945" lon="0.61203">
        <ele>51.57</ele>
        <time>2012-12-29T07:45:58Z</time>
      </trkpt>
      <trkpt lat="44.20939" lon="0.61216">
        <ele>51.09</ele>
        <time>2012-12-29T07:46:06Z</time>
      </trkpt>
      <trkpt lat="44.20937" lon="0.61225">
        <ele>51.09</ele>
        <time>2012-12-29T07:46:08Z</time>
      </trkpt>
      <trkpt lat="44.20919" lon="0.61301">
        <ele>50.61</ele>
        <time>2012-12-29T07:46:24Z</time>
      </trkpt>
      <trkpt lat="44.20902" lon="0.61372">
        <ele>50.13</ele>
        <time>2012-12-29T07:46:38Z</time>
      </trkpt>
      <trkpt lat="44.20893" lon="0.61443">
        <ele>50.61</ele>
        <time>2012-12-29T07:46:52Z</time>
      </trkpt>
      <trkpt lat="44.2089" lon="0.61516">
        <ele>50.61</ele>
        <time>2012-12-29T07:47:06Z</time>
      </trkpt>
      <trkpt lat="44.20894" lon="0.61584">
        <ele>50.61</ele>
        <time>2012-12-29T07:47:19Z</time>
      </trkpt>
      <trkpt lat="44.20904" lon="0.61649">
        <ele>50.61</ele>
        <time>2012-12-29T07:47:32Z</time>
      </trkpt>
      <trkpt lat="44.20913" lon="0.6172">
        <ele>50.61</ele>
        <time>2012-12-29T07:47:46Z</time>
      </trkpt>
      <trkpt lat="44.20925" lon="0.61796">
        <ele>50.61</ele>
        <time>2012-12-29T07:48:01Z</time>
      </trkpt>
      <trkpt lat="44.20933" lon="0.61862">
        <ele>51.09</ele>
        <time>2012-12-29T07:48:16Z</time>
      </trkpt>
      <trkpt lat="44.20935" lon="0.61872">
        <ele>51.09</ele>
        <time>2012-12-29T07:48:21Z</time>
      </trkpt>
      <trkpt lat="44.20937" lon="0.61874">
        <ele>51.09</ele>
        <time>2012-12-29T07:48:23Z</time>
      </trkpt>
      <trkpt lat="44.20941" lon="0.61883">
        <ele>51.09</ele>
        <time>2012-12-29T07:48:29Z</time>
      </trkpt>
      <trkpt lat="44.20942" lon="0.61875">
        <ele>51.57</ele>
        <time>2012-12-29T07:48:33Z</time>
      </trkpt>
      <trkpt lat="44.20944" lon="0.61868">
        <ele>53.01</ele>
        <time>2012-12-29T07:48:37Z</time>
      </trkpt>
      <trkpt lat="44.20951" lon="0.61859">
        <ele>55.41</ele>
        <time>2012-12-29T07:48:48Z</time>
      </trkpt>
      <trkpt lat="44.20952" lon="0.61857">
        <ele>55.89</ele>
        <time>2012-12-29T07:48:55Z</time>
      </trkpt>
      <trkpt lat="44.20957" lon="0.61838">
        <ele>58.3</ele>
        <time>2012-12-29T07:49:08Z</time>
      </trkpt>
      <trkpt lat="44.20958" lon="0.61821">
        <ele>60.7</ele>
        <time>2012-12-29T07:49:19Z</time>
      </trkpt>
      <trkpt lat="44.20959" lon="0.61815">
        <ele>61.18</ele>
        <time>2012-12-29T07:49:23Z</time>
      </trkpt>
      <trkpt lat="44.2096" lon="0.61812">
        <ele>61.66</ele>
        <time>2012-12-29T07:49:25Z</time>
      </trkpt>
      <trkpt lat="44.20959" lon="0.61808">
        <ele>62.14</ele>
        <time>2012-12-29T07:49:27Z</time>
      </trkpt>
      <trkpt lat="44.20958" lon="0.61788">
        <ele>64.55</ele>
        <time>2012-12-29T07:49:39Z</time>
      </trkpt>
      <trkpt lat="44.20958" lon="0.61783">
        <ele>65.03</ele>
        <time>2012-12-29T07:49:42Z</time>
      </trkpt>
      <trkpt lat="44.20957" lon="0.61779">
        <ele>65.51</ele>
        <time>2012-12-29T07:49:45Z</time>
      </trkpt>
      <trkpt lat="44.20961" lon="0.61778">
        <ele>66.95</ele>
        <time>2012-12-29T07:49:49Z</time>
      </trkpt>
      <trkpt lat="44.20962" lon="0.61784">
        <ele>66.95</ele>
        <time>2012-12-29T07:49:53Z</time>
      </trkpt>
      <trkpt lat="44.20969" lon="0.61798">
        <ele>67.91</ele>
        <time>2012-12-29T07:50:02Z</time>
      </trkpt>
      <trkpt lat="44.20972" lon="0.61806">
        <ele>68.39</ele>
        <time>2012-12-29T07:50:06Z</time>
      </trkpt>
      <trkpt lat="44.20974" lon="0.61813">
        <ele>68.87</ele>
        <time>2012-12-29T07:50:10Z</time>
      </trkpt>
      <trkpt lat="44.20982" lon="0.61833">
        <ele>70.79</ele>
        <time>2012-12-29T07:50:22Z</time>
      </trkpt>
      <trkpt lat="44.20991" lon="0.61843">
        <ele>73.68</ele>
        <time>2012-12-29T07:50:36Z</time>
      </trkpt>
      <trkpt lat="44.20989" lon="0.61826">
        <ele>74.16</ele>
        <time>2012-12-29T07:50:45Z</time>
      </trkpt>
      <trkpt lat="44.20988" lon="0.61812">
        <ele>75.12</ele>
        <time>2012-12-29T07:50:51Z</time>
      </trkpt>
      <trkpt lat="44.20988" lon="0.61796">
        <ele>75.6</ele>
        <time>2012-12-29T07:50:58Z</time>
      </trkpt>
      <trkpt lat="44.20986" lon="0.61783">
        <ele>77.52</ele>
        <time>2012-12-29T07:51:05Z</time>
      </trkpt>
      <trkpt lat="44.2099" lon="0.61789">
        <ele>77.52</ele>
        <time>2012-12-29T07:51:10Z</time>
      </trkpt>
      <trkpt lat="44.21005" lon="0.61822">
        <ele>79.45</ele>
        <time>2012-12-29T07:51:23Z</time>
      </trkpt>
      <trkpt lat="44.21025" lon="0.61849">
        <ele>82.81</ele>
        <time>2012-12-29T07:51:38Z</time>
      </trkpt>
      <trkpt lat="44.21025" lon="0.6185">
        <ele>82.81</ele>
        <time>2012-12-29T07:51:50Z</time>
      </trkpt>
      <trkpt lat="44.21026" lon="0.6185">
        <ele>82.81</ele>
        <time>2012-12-29T07:51:52Z</time>
      </trkpt>
      <trkpt lat="44.21035" lon="0.61859">
        <ele>85.21</ele>
        <time>2012-12-29T07:52:02Z</time>
      </trkpt>
      <trkpt lat="44.21051" lon="0.61873">
        <ele>87.62</ele>
        <time>2012-12-29T07:52:17Z</time>
      </trkpt>
      <trkpt lat="44.21053" lon="0.61875">
        <ele>88.1</ele>
        <time>2012-12-29T07:52:19Z</time>
      </trkpt>
      <trkpt lat="44.21069" lon="0.61896">
        <ele>89.54</ele>
        <time>2012-12-29T07:52:35Z</time>
      </trkpt>
      <trkpt lat="44.21076" lon="0.61902">
        <ele>90.5</ele>
        <time>2012-12-29T07:52:41Z</time>
      </trkpt>
      <trkpt lat="44.21083" lon="0.61932">
        <ele>93.87</ele>
        <time>2012-12-29T07:52:58Z</time>
      </trkpt>
      <trkpt lat="44.21085" lon="0.61937">
        <ele>93.87</ele>
        <time>2012-12-29T07:53:01Z</time>
      </trkpt>
      <trkpt lat="44.21094" lon="0.61967">
        <ele>96.75</ele>
        <time>2012-12-29T07:53:20Z</time>
      </trkpt>
      <trkpt lat="44.21099" lon="0.61984">
        <ele>98.19</ele>
        <time>2012-12-29T07:53:31Z</time>
      </trkpt>
      <trkpt lat="44.21104" lon="0.61986">
        <ele>99.15</ele>
        <time>2012-12-29T07:53:36Z</time>
      </trkpt>
      <trkpt lat="44.2111" lon="0.61986">
        <ele>99.63</ele>
        <time>2012-12-29T07:53:40Z</time>
      </trkpt>
      <trkpt lat="44.21112" lon="0.61983">
        <ele>100.6</ele>
        <time>2012-12-29T07:53:42Z</time>
      </trkpt>
      <trkpt lat="44.21115" lon="0.61961">
        <ele>102.52</ele>
        <time>2012-12-29T07:53:56Z</time>
      </trkpt>
      <trkpt lat="44.21116" lon="0.61937">
        <ele>104.92</ele>
        <time>2012-12-29T07:54:09Z</time>
      </trkpt>
      <trkpt lat="44.21117" lon="0.61909">
        <ele>107.32</ele>
        <time>2012-12-29T07:54:24Z</time>
      </trkpt>
      <trkpt lat="44.21117" lon="0.61907">
        <ele>107.81</ele>
        <time>2012-12-29T07:54:25Z</time>
      </trkpt>
      <trkpt lat="44.21117" lon="0.61903">
        <ele>108.29</ele>
        <time>2012-12-29T07:54:28Z</time>
      </trkpt>
      <trkpt lat="44.21122" lon="0.61895">
        <ele>109.25</ele>
        <time>2012-12-29T07:54:34Z</time>
      </trkpt>
      <trkpt lat="44.21135" lon="0.61903">
        <ele>110.69</ele>
        <time>2012-12-29T07:54:46Z</time>
      </trkpt>
      <trkpt lat="44.21136" lon="0.6191">
        <ele>111.65</ele>
        <time>2012-12-29T07:54:50Z</time>
      </trkpt>
      <trkpt lat="44.21147" lon="0.61942">
        <ele>114.05</ele>
        <time>2012-12-29T07:55:08Z</time>
      </trkpt>
      <trkpt lat="44.21148" lon="0.61949">
        <ele>115.01</ele>
        <time>2012-12-29T07:55:12Z</time>
      </trkpt>
      <trkpt lat="44.2115" lon="0.61956">
        <ele>115.5</ele>
        <time>2012-12-29T07:55:17Z</time>
      </trkpt>
      <trkpt lat="44.2116" lon="0.61963">
        <ele>116.94</ele>
        <time>2012-12-29T07:55:26Z</time>
      </trkpt>
      <trkpt lat="44.21165" lon="0.61961">
        <ele>117.9</ele>
        <time>2012-12-29T07:55:31Z</time>
      </trkpt>
      <trkpt lat="44.2117" lon="0.61955">
        <ele>118.38</ele>
        <time>2012-12-29T07:55:36Z</time>
      </trkpt>
      <trkpt lat="44.21175" lon="0.61926">
        <ele>121.74</ele>
        <time>2012-12-29T07:55:51Z</time>
      </trkpt>
      <trkpt lat="44.21178" lon="0.61915">
        <ele>122.71</ele>
        <time>2012-12-29T07:55:58Z</time>
      </trkpt>
      <trkpt lat="44.21178" lon="0.61906">
        <ele>123.67</ele>
        <time>2012-12-29T07:56:03Z</time>
      </trkpt>
      <trkpt lat="44.2118" lon="0.61897">
        <ele>124.63</ele>
        <time>2012-12-29T07:56:09Z</time>
      </trkpt>
      <trkpt lat="44.21179" lon="0.61883">
        <ele>126.07</ele>
        <time>2012-12-29T07:56:16Z</time>
      </trkpt>
      <trkpt lat="44.2118" lon="0.61869">
        <ele>127.03</ele>
        <time>2012-12-29T07:56:24Z</time>
      </trkpt>
      <trkpt lat="44.21179" lon="0.61866">
        <ele>127.51</ele>
        <time>2012-12-29T07:56:26Z</time>
      </trkpt>
      <trkpt lat="44.21178" lon="0.61863">
        <ele>127.99</ele>
        <time>2012-12-29T07:56:28Z</time>
      </trkpt>
      <trkpt lat="44.21176" lon="0.61854">
        <ele>129.43</ele>
        <time>2012-12-29T07:56:34Z</time>
      </trkpt>
      <trkpt lat="44.21173" lon="0.61824">
        <ele>132.32</ele>
        <time>2012-12-29T07:56:52Z</time>
      </trkpt>
      <trkpt lat="44.21172" lon="0.6182">
        <ele>132.8</ele>
        <time>2012-12-29T07:56:55Z</time>
      </trkpt>
      <trkpt lat="44.21173" lon="0.61814">
        <ele>133.76</ele>
        <time>2012-12-29T07:56:59Z</time>
      </trkpt>
      <trkpt lat="44.21179" lon="0.61816">
        <ele>134.24</ele>
        <time>2012-12-29T07:57:05Z</time>
      </trkpt>
      <trkpt lat="44.21189" lon="0.61826">
        <ele>136.16</ele>
        <time>2012-12-29T07:57:15Z</time>
      </trkpt>
      <trkpt lat="44.21195" lon="0.61833">
        <ele>137.13</ele>
        <time>2012-12-29T07:57:21Z</time>
      </trkpt>
      <trkpt lat="44.21203" lon="0.61847">
        <ele>138.57</ele>
        <time>2012-12-29T07:57:32Z</time>
      </trkpt>
      <trkpt lat="44.21206" lon="0.61855">
        <ele>139.53</ele>
        <time>2012-12-29T07:57:38Z</time>
      </trkpt>
      <trkpt lat="44.21213" lon="0.61873">
        <ele>141.45</ele>
        <time>2012-12-29T07:57:51Z</time>
      </trkpt>
      <trkpt lat="44.21218" lon="0.61891">
        <ele>143.85</ele>
        <time>2012-12-29T07:58:05Z</time>
      </trkpt>
      <trkpt lat="44.21221" lon="0.61895">
        <ele>144.34</ele>
        <time>2012-12-29T07:58:08Z</time>
      </trkpt>
      <trkpt lat="44.21238" lon="0.61905">
        <ele>146.26</ele>
        <time>2012-12-29T07:58:22Z</time>
      </trkpt>
      <trkpt lat="44.21242" lon="0.61904">
        <ele>147.22</ele>
        <time>2012-12-29T07:58:25Z</time>
      </trkpt>
      <trkpt lat="44.2126" lon="0.61907">
        <ele>149.14</ele>
        <time>2012-12-29T07:58:39Z</time>
      </trkpt>
      <trkpt lat="44.21272" lon="0.61906">
        <ele>151.06</ele>
        <time>2012-12-29T07:58:48Z</time>
      </trkpt>
      <trkpt lat="44.21295" lon="0.61913">
        <ele>153.95</ele>
        <time>2012-12-29T07:59:06Z</time>
      </trkpt>
      <trkpt lat="44.21316" lon="0.6192">
        <ele>156.83</ele>
        <time>2012-12-29T07:59:23Z</time>
      </trkpt>
      <trkpt lat="44.21328" lon="0.61924">
        <ele>159.24</ele>
        <time>2012-12-29T07:59:33Z</time>
      </trkpt>
      <trkpt lat="44.21333" lon="0.61925">
        <ele>159.72</ele>
        <time>2012-12-29T07:59:37Z</time>
      </trkpt>
      <trkpt lat="44.21344" lon="0.61932">
        <ele>161.64</ele>
        <time>2012-12-29T07:59:47Z</time>
      </trkpt>
      <trkpt lat="44.2136" lon="0.61951">
        <ele>163.08</ele>
        <time>2012-12-29T08:00:01Z</time>
      </trkpt>
      <trkpt lat="44.21391" lon="0.61982">
        <ele>162.6</ele>
        <time>2012-12-29T08:00:15Z</time>
      </trkpt>
      <trkpt lat="44.21416" lon="0.61997">
        <ele>162.12</ele>
        <time>2012-12-29T08:00:22Z</time>
      </trkpt>
      <trkpt lat="44.21439" lon="0.62007">
        <ele>161.16</ele>
        <time>2012-12-29T08:00:27Z</time>
      </trkpt>
      <trkpt lat="44.21461" lon="0.62021">
        <ele>158.75</ele>
        <time>2012-12-29T08:00:31Z</time>
      </trkpt>
      <trkpt lat="44.21494" lon="0.62054">
        <ele>153.95</ele>
        <time>2012-12-29T08:00:36Z</time>
      </trkpt>
      <trkpt lat="44.21514" lon="0.6208">
        <ele>150.58</ele>
        <time>2012-12-29T08:00:39Z</time>
      </trkpt>
      <trkpt lat="44.21568" lon="0.62147">
        <ele>147.22</ele>
        <time>2012-12-29T08:00:47Z</time>
      </trkpt>
      <trkpt lat="44.21598" lon="0.62185">
        <ele>145.78</ele>
        <time>2012-12-29T08:00:52Z</time>
      </trkpt>
      <trkpt lat="44.21624" lon="0.62205">
        <ele>144.82</ele>
        <time>2012-12-29T08:00:56Z</time>
      </trkpt>
      <trkpt lat="44.21637" lon="0.62209">
        <ele>144.34</ele>
        <time>2012-12-29T08:00:59Z</time>
      </trkpt>
      <trkpt lat="44.21638" lon="0.62223">
        <ele>142.89</ele>
        <time>2012-12-29T08:01:04Z</time>
      </trkpt>
      <trkpt lat="44.21613" lon="0.62257">
        <ele>143.37</ele>
        <time>2012-12-29T08:01:15Z</time>
      </trkpt>
      <trkpt lat="44.21606" lon="0.62269">
        <ele>142.41</ele>
        <time>2012-12-29T08:01:18Z</time>
      </trkpt>
      <trkpt lat="44.21572" lon="0.6228">
        <ele>140.01</ele>
        <time>2012-12-29T08:01:26Z</time>
      </trkpt>
      <trkpt lat="44.21547" lon="0.62269">
        <ele>139.05</ele>
        <time>2012-12-29T08:01:31Z</time>
      </trkpt>
      <trkpt lat="44.21535" lon="0.62265">
        <ele>138.09</ele>
        <time>2012-12-29T08:01:33Z</time>
      </trkpt>
      <trkpt lat="44.21524" lon="0.62263">
        <ele>137.13</ele>
        <time>2012-12-29T08:01:35Z</time>
      </trkpt>
      <trkpt lat="44.21519" lon="0.62262">
        <ele>136.64</ele>
        <time>2012-12-29T08:01:36Z</time>
      </trkpt>
      <trkpt lat="44.21502" lon="0.62266">
        <ele>134.24</ele>
        <time>2012-12-29T08:01:40Z</time>
      </trkpt>
      <trkpt lat="44.21479" lon="0.62281">
        <ele>127.99</ele>
        <time>2012-12-29T08:01:44Z</time>
      </trkpt>
      <trkpt lat="44.21465" lon="0.62299">
        <ele>124.15</ele>
        <time>2012-12-29T08:01:46Z</time>
      </trkpt>
      <trkpt lat="44.21448" lon="0.62333">
        <ele>121.74</ele>
        <time>2012-12-29T08:01:49Z</time>
      </trkpt>
      <trkpt lat="44.21418" lon="0.62383">
        <ele>122.71</ele>
        <time>2012-12-29T08:01:55Z</time>
      </trkpt>
      <trkpt lat="44.2141" lon="0.62414">
        <ele>120.3</ele>
        <time>2012-12-29T08:01:59Z</time>
      </trkpt>
      <trkpt lat="44.21408" lon="0.62434">
        <ele>117.9</ele>
        <time>2012-12-29T08:02:01Z</time>
      </trkpt>
      <trkpt lat="44.21394" lon="0.6247">
        <ele>112.61</ele>
        <time>2012-12-29T08:02:05Z</time>
      </trkpt>
      <trkpt lat="44.21369" lon="0.62496">
        <ele>107.32</ele>
        <time>2012-12-29T08:02:09Z</time>
      </trkpt>
      <trkpt lat="44.21352" lon="0.62512">
        <ele>103</ele>
        <time>2012-12-29T08:02:11Z</time>
      </trkpt>
      <trkpt lat="44.21327" lon="0.62543">
        <ele>98.19</ele>
        <time>2012-12-29T08:02:14Z</time>
      </trkpt>
      <trkpt lat="44.21319" lon="0.62555">
        <ele>96.75</ele>
        <time>2012-12-29T08:02:15Z</time>
      </trkpt>
      <trkpt lat="44.21301" lon="0.62598">
        <ele>93.39</ele>
        <time>2012-12-29T08:02:18Z</time>
      </trkpt>
      <trkpt lat="44.21258" lon="0.62642">
        <ele>88.58</ele>
        <time>2012-12-29T08:02:23Z</time>
      </trkpt>
      <trkpt lat="44.21248" lon="0.62642">
        <ele>88.1</ele>
        <time>2012-12-29T08:02:24Z</time>
      </trkpt>
      <trkpt lat="44.21198" lon="0.62644">
        <ele>84.73</ele>
        <time>2012-12-29T08:02:29Z</time>
      </trkpt>
      <trkpt lat="44.21165" lon="0.62643">
        <ele>79.45</ele>
        <time>2012-12-29T08:02:32Z</time>
      </trkpt>
      <trkpt lat="44.21147" lon="0.62633">
        <ele>76.08</ele>
        <time>2012-12-29T08:02:34Z</time>
      </trkpt>
      <trkpt lat="44.21129" lon="0.62618">
        <ele>73.2</ele>
        <time>2012-12-29T08:02:36Z</time>
      </trkpt>
      <trkpt lat="44.21084" lon="0.62606">
        <ele>70.31</ele>
        <time>2012-12-29T08:02:42Z</time>
      </trkpt>
      <trkpt lat="44.21085" lon="0.62625">
        <ele>68.39</ele>
        <time>2012-12-29T08:02:47Z</time>
      </trkpt>
      <trkpt lat="44.21108" lon="0.6267">
        <ele>65.99</ele>
        <time>2012-12-29T08:02:55Z</time>
      </trkpt>
      <trkpt lat="44.21138" lon="0.62709">
        <ele>64.55</ele>
        <time>2012-12-29T08:03:02Z</time>
      </trkpt>
      <trkpt lat="44.2115" lon="0.62726">
        <ele>64.55</ele>
        <time>2012-12-29T08:03:05Z</time>
      </trkpt>
      <trkpt lat="44.21166" lon="0.6276">
        <ele>63.58</ele>
        <time>2012-12-29T08:03:10Z</time>
      </trkpt>
      <trkpt lat="44.21178" lon="0.62794">
        <ele>60.22</ele>
        <time>2012-12-29T08:03:14Z</time>
      </trkpt>
      <trkpt lat="44.21156" lon="0.62817">
        <ele>57.34</ele>
        <time>2012-12-29T08:03:21Z</time>
      </trkpt>
      <trkpt lat="44.21125" lon="0.62831">
        <ele>54.45</ele>
        <time>2012-12-29T08:03:26Z</time>
      </trkpt>
      <trkpt lat="44.21111" lon="0.62838">
        <ele>53.49</ele>
        <time>2012-12-29T08:03:28Z</time>
      </trkpt>
      <trkpt lat="44.21098" lon="0.62845">
        <ele>53.01</ele>
        <time>2012-12-29T08:03:30Z</time>
      </trkpt>
      <trkpt lat="44.21082" lon="0.62855">
        <ele>52.53</ele>
        <time>2012-12-29T08:03:33Z</time>
      </trkpt>
      <trkpt lat="44.21049" lon="0.62871">
        <ele>51.57</ele>
        <time>2012-12-29T08:03:39Z</time>
      </trkpt>
      <trkpt lat="44.21021" lon="0.62868">
        <ele>50.61</ele>
        <time>2012-12-29T08:03:44Z</time>
      </trkpt>
      <trkpt lat="44.21011" lon="0.62862">
        <ele>51.09</ele>
        <time>2012-12-29T08:03:46Z</time>
      </trkpt>
      <trkpt lat="44.20994" lon="0.62853">
        <ele>52.53</ele>
        <time>2012-12-29T08:03:55Z</time>
      </trkpt>
      <trkpt lat="44.20993" lon="0.6285">
        <ele>52.53</ele>
        <time>2012-12-29T08:03:57Z</time>
      </trkpt>
      <trkpt lat="44.20994" lon="0.62827">
        <ele>51.57</ele>
        <time>2012-12-29T08:04:06Z</time>
      </trkpt>
      <trkpt lat="44.20972" lon="0.62878">
        <ele>50.13</ele>
        <time>2012-12-29T08:04:19Z</time>
      </trkpt>
      <trkpt lat="44.20979" lon="0.62906">
        <ele>50.61</ele>
        <time>2012-12-29T08:04:27Z</time>
      </trkpt>
      <trkpt lat="44.2099" lon="0.62959">
        <ele>50.61</ele>
        <time>2012-12-29T08:04:38Z</time>
      </trkpt>
      <trkpt lat="44.20999" lon="0.63017">
        <ele>51.09</ele>
        <time>2012-12-29T08:04:49Z</time>
      </trkpt>
      <trkpt lat="44.21" lon="0.63028">
        <ele>50.61</ele>
        <time>2012-12-29T08:04:51Z</time>
      </trkpt>
      <trkpt lat="44.21003" lon="0.63053">
        <ele>50.61</ele>
        <time>2012-12-29T08:04:55Z</time>
      </trkpt>
      <trkpt lat="44.21016" lon="0.63146">
        <ele>50.13</ele>
        <time>2012-12-29T08:05:12Z</time>
      </trkpt>
      <trkpt lat="44.21033" lon="0.63253">
        <ele>50.61</ele>
        <time>2012-12-29T08:05:31Z</time>
      </trkpt>
      <trkpt lat="44.21045" lon="0.63338">
        <ele>50.61</ele>
        <time>2012-12-29T08:05:45Z</time>
      </trkpt>
      <trkpt lat="44.21061" lon="0.6346">
        <ele>50.61</ele>
        <time>2012-12-29T08:06:06Z</time>
      </trkpt>
      <trkpt lat="44.21067" lon="0.6355">
        <ele>50.61</ele>
        <time>2012-12-29T08:06:21Z</time>
      </trkpt>
      <trkpt lat="44.21067" lon="0.63562">
        <ele>50.61</ele>
        <time>2012-12-29T08:06:23Z</time>
      </trkpt>
      <trkpt lat="44.21066" lon="0.63575">
        <ele>50.61</ele>
        <time>2012-12-29T08:06:25Z</time>
      </trkpt>
      <trkpt lat="44.21054" lon="0.63688">
        <ele>50.61</ele>
        <time>2012-12-29T08:06:44Z</time>
      </trkpt>
      <trkpt lat="44.21045" lon="0.63734">
        <ele>50.61</ele>
        <time>2012-12-29T08:06:52Z</time>
      </trkpt>
      <trkpt lat="44.21016" lon="0.63834">
        <ele>51.09</ele>
        <time>2012-12-29T08:07:10Z</time>
      </trkpt>
      <trkpt lat="44.20985" lon="0.63899">
        <ele>51.09</ele>
        <time>2012-12-29T08:07:23Z</time>
      </trkpt>
      <trkpt lat="44.2095" lon="0.63955">
        <ele>51.09</ele>
        <time>2012-12-29T08:07:36Z</time>
      </trkpt>
      <trkpt lat="44.20918" lon="0.63999">
        <ele>51.09</ele>
        <time>2012-12-29T08:07:46Z</time>
      </trkpt>
      <trkpt lat="44.2088" lon="0.64042">
        <ele>51.09</ele>
        <time>2012-12-29T08:07:58Z</time>
      </trkpt>
      <trkpt lat="44.20834" lon="0.641">
        <ele>51.57</ele>
        <time>2012-12-29T08:08:12Z</time>
      </trkpt>
      <trkpt lat="44.2083" lon="0.64104">
        <ele>51.57</ele>
        <time>2012-12-29T08:08:13Z</time>
      </trkpt>
      <trkpt lat="44.20809" lon="0.64131">
        <ele>50.61</ele>
        <time>2012-12-29T08:08:19Z</time>
      </trkpt>
      <trkpt lat="44.2077" lon="0.64176">
        <ele>51.57</ele>
        <time>2012-12-29T08:08:31Z</time>
      </trkpt>
      <trkpt lat="44.20763" lon="0.64184">
        <ele>51.57</ele>
        <time>2012-12-29T08:08:33Z</time>
      </trkpt>
      <trkpt lat="44.20689" lon="0.64246">
        <ele>51.09</ele>
        <time>2012-12-29T08:08:53Z</time>
      </trkpt>
      <trkpt lat="44.20665" lon="0.64261">
        <ele>51.09</ele>
        <time>2012-12-29T08:08:59Z</time>
      </trkpt>
      <trkpt lat="44.20596" lon="0.64292">
        <ele>50.61</ele>
        <time>2012-12-29T08:09:16Z</time>
      </trkpt>
      <trkpt lat="44.20584" lon="0.64295">
        <ele>51.09</ele>
        <time>2012-12-29T08:09:19Z</time>
      </trkpt>
      <trkpt lat="44.20575" lon="0.64294">
        <ele>51.09</ele>
        <time>2012-12-29T08:09:21Z</time>
      </trkpt>
      <trkpt lat="44.20556" lon="0.64302">
        <ele>51.09</ele>
        <time>2012-12-29T08:09:26Z</time>
      </trkpt>
      <trkpt lat="44.20558" lon="0.64316">
        <ele>52.53</ele>
        <time>2012-12-29T08:09:31Z</time>
      </trkpt>
      <trkpt lat="44.20566" lon="0.64325">
        <ele>52.53</ele>
        <time>2012-12-29T08:09:34Z</time>
      </trkpt>
      <trkpt lat="44.20574" lon="0.64356">
        <ele>52.53</ele>
        <time>2012-12-29T08:09:41Z</time>
      </trkpt>
      <trkpt lat="44.20615" lon="0.64421">
        <ele>53.01</ele>
        <time>2012-12-29T08:09:57Z</time>
      </trkpt>
      <trkpt lat="44.20655" lon="0.6448">
        <ele>53.97</ele>
        <time>2012-12-29T08:10:12Z</time>
      </trkpt>
      <trkpt lat="44.20658" lon="0.64484">
        <ele>53.49</ele>
        <time>2012-12-29T08:10:13Z</time>
      </trkpt>
      <trkpt lat="44.20658" lon="0.64541">
        <ele>55.41</ele>
        <time>2012-12-29T08:10:25Z</time>
      </trkpt>
      <trkpt lat="44.20645" lon="0.64587">
        <ele>58.3</ele>
        <time>2012-12-29T08:10:37Z</time>
      </trkpt>
      <trkpt lat="44.20635" lon="0.6466">
        <ele>60.22</ele>
        <time>2012-12-29T08:10:56Z</time>
      </trkpt>
      <trkpt lat="44.20644" lon="0.64724">
        <ele>61.66</ele>
        <time>2012-12-29T08:11:13Z</time>
      </trkpt>
      <trkpt lat="44.20658" lon="0.64777">
        <ele>63.58</ele>
        <time>2012-12-29T08:11:28Z</time>
      </trkpt>
      <trkpt lat="44.20659" lon="0.64835">
        <ele>65.51</ele>
        <time>2012-12-29T08:11:43Z</time>
      </trkpt>
      <trkpt lat="44.20648" lon="0.64894">
        <ele>68.87</ele>
        <time>2012-12-29T08:11:59Z</time>
      </trkpt>
      <trkpt lat="44.20637" lon="0.6495">
        <ele>72.24</ele>
        <time>2012-12-29T08:12:16Z</time>
      </trkpt>
      <trkpt lat="44.20629" lon="0.64997">
        <ele>74.64</ele>
        <time>2012-12-29T08:12:30Z</time>
      </trkpt>
      <trkpt lat="44.20611" lon="0.65044">
        <ele>77.52</ele>
        <time>2012-12-29T08:12:46Z</time>
      </trkpt>
      <trkpt lat="44.20615" lon="0.65087">
        <ele>78.48</ele>
        <time>2012-12-29T08:12:58Z</time>
      </trkpt>
      <trkpt lat="44.20622" lon="0.65123">
        <ele>79.93</ele>
        <time>2012-12-29T08:13:10Z</time>
      </trkpt>
      <trkpt lat="44.20624" lon="0.65168">
        <ele>82.33</ele>
        <time>2012-12-29T08:13:23Z</time>
      </trkpt>
      <trkpt lat="44.2063" lon="0.65222">
        <ele>83.77</ele>
        <time>2012-12-29T08:13:38Z</time>
      </trkpt>
      <trkpt lat="44.20643" lon="0.65261">
        <ele>85.21</ele>
        <time>2012-12-29T08:13:50Z</time>
      </trkpt>
      <trkpt lat="44.20671" lon="0.65304">
        <ele>86.66</ele>
        <time>2012-12-29T08:14:06Z</time>
      </trkpt>
      <trkpt lat="44.20698" lon="0.6534">
        <ele>88.1</ele>
        <time>2012-12-29T08:14:21Z</time>
      </trkpt>
      <trkpt lat="44.2072" lon="0.65388">
        <ele>90.5</ele>
        <time>2012-12-29T08:14:37Z</time>
      </trkpt>
      <trkpt lat="44.20729" lon="0.65431">
        <ele>91.94</ele>
        <time>2012-12-29T08:14:50Z</time>
      </trkpt>
      <trkpt lat="44.20749" lon="0.65453">
        <ele>93.39</ele>
        <time>2012-12-29T08:15:01Z</time>
      </trkpt>
      <trkpt lat="44.20778" lon="0.65484">
        <ele>94.83</ele>
        <time>2012-12-29T08:15:15Z</time>
      </trkpt>
      <trkpt lat="44.20816" lon="0.65522">
        <ele>97.71</ele>
        <time>2012-12-29T08:15:33Z</time>
      </trkpt>
      <trkpt lat="44.20834" lon="0.65538">
        <ele>98.67</ele>
        <time>2012-12-29T08:15:42Z</time>
      </trkpt>
      <trkpt lat="44.20855" lon="0.65524">
        <ele>100.6</ele>
        <time>2012-12-29T08:15:56Z</time>
      </trkpt>
      <trkpt lat="44.20872" lon="0.65506">
        <ele>103.96</ele>
        <time>2012-12-29T08:16:12Z</time>
      </trkpt>
      <trkpt lat="44.20883" lon="0.65501">
        <ele>105.88</ele>
        <time>2012-12-29T08:16:24Z</time>
      </trkpt>
      <trkpt lat="44.20889" lon="0.65501">
        <ele>106.84</ele>
        <time>2012-12-29T08:16:29Z</time>
      </trkpt>
      <trkpt lat="44.20898" lon="0.65504">
        <ele>108.77</ele>
        <time>2012-12-29T08:16:38Z</time>
      </trkpt>
      <trkpt lat="44.20901" lon="0.65508">
        <ele>109.25</ele>
        <time>2012-12-29T08:16:42Z</time>
      </trkpt>
      <trkpt lat="44.20908" lon="0.65518">
        <ele>109.73</ele>
        <time>2012-12-29T08:16:50Z</time>
      </trkpt>
      <trkpt lat="44.20912" lon="0.65527">
        <ele>110.69</ele>
        <time>2012-12-29T08:16:57Z</time>
      </trkpt>
      <trkpt lat="44.20922" lon="0.6555">
        <ele>112.61</ele>
        <time>2012-12-29T08:17:11Z</time>
      </trkpt>
      <trkpt lat="44.20927" lon="0.65573">
        <ele>113.57</ele>
        <time>2012-12-29T08:17:23Z</time>
      </trkpt>
      <trkpt lat="44.20934" lon="0.65603">
        <ele>115.98</ele>
        <time>2012-12-29T08:17:39Z</time>
      </trkpt>
      <trkpt lat="44.20941" lon="0.65625">
        <ele>118.38</ele>
        <time>2012-12-29T08:17:52Z</time>
      </trkpt>
      <trkpt lat="44.20948" lon="0.65647">
        <ele>120.78</ele>
        <time>2012-12-29T08:18:05Z</time>
      </trkpt>
      <trkpt lat="44.20954" lon="0.65663">
        <ele>122.71</ele>
        <time>2012-12-29T08:18:16Z</time>
      </trkpt>
      <trkpt lat="44.20959" lon="0.65675">
        <ele>124.63</ele>
        <time>2012-12-29T08:18:24Z</time>
      </trkpt>
      <trkpt lat="44.20966" lon="0.65689">
        <ele>125.59</ele>
        <time>2012-12-29T08:18:33Z</time>
      </trkpt>
      <trkpt lat="44.20972" lon="0.657">
        <ele>126.55</ele>
        <time>2012-12-29T08:18:40Z</time>
      </trkpt>
      <trkpt lat="44.20963" lon="0.65727">
        <ele>126.55</ele>
        <time>2012-12-29T08:18:52Z</time>
      </trkpt>
      <trkpt lat="44.20949" lon="0.65755">
        <ele>127.03</ele>
        <time>2012-12-29T08:19:04Z</time>
      </trkpt>
      <trkpt lat="44.20933" lon="0.65782">
        <ele>127.03</ele>
        <time>2012-12-29T08:19:16Z</time>
      </trkpt>
      <trkpt lat="44.20923" lon="0.65807">
        <ele>128.47</ele>
        <time>2012-12-29T08:19:26Z</time>
      </trkpt>
      <trkpt lat="44.2092" lon="0.65834">
        <ele>129.43</ele>
        <time>2012-12-29T08:19:36Z</time>
      </trkpt>
      <trkpt lat="44.20919" lon="0.65849">
        <ele>131.36</ele>
        <time>2012-12-29T08:19:42Z</time>
      </trkpt>
      <trkpt lat="44.20916" lon="0.65872">
        <ele>133.76</ele>
        <time>2012-12-29T08:19:53Z</time>
      </trkpt>
      <trkpt lat="44.20914" lon="0.65879">
        <ele>135.2</ele>
        <time>2012-12-29T08:19:56Z</time>
      </trkpt>
      <trkpt lat="44.20912" lon="0.65897">
        <ele>137.61</ele>
        <time>2012-12-29T08:20:04Z</time>
      </trkpt>
      <trkpt lat="44.2091" lon="0.65915">
        <ele>139.05</ele>
        <time>2012-12-29T08:20:13Z</time>
      </trkpt>
      <trkpt lat="44.20911" lon="0.65919">
        <ele>139.05</ele>
        <time>2012-12-29T08:20:15Z</time>
      </trkpt>
      <trkpt lat="44.20911" lon="0.65927">
        <ele>139.53</ele>
        <time>2012-12-29T08:20:19Z</time>
      </trkpt>
      <trkpt lat="44.20912" lon="0.65937">
        <ele>139.53</ele>
        <time>2012-12-29T08:20:22Z</time>
      </trkpt>
      <trkpt lat="44.20914" lon="0.65949">
        <ele>139.53</ele>
        <time>2012-12-29T08:20:26Z</time>
      </trkpt>
      <trkpt lat="44.20914" lon="0.6597">
        <ele>140.01</ele>
        <time>2012-12-29T08:20:34Z</time>
      </trkpt>
      <trkpt lat="44.20917" lon="0.66005">
        <ele>140.97</ele>
        <time>2012-12-29T08:20:46Z</time>
      </trkpt>
      <trkpt lat="44.20916" lon="0.66028">
        <ele>142.41</ele>
        <time>2012-12-29T08:20:54Z</time>
      </trkpt>
      <trkpt lat="44.20914" lon="0.66043">
        <ele>143.85</ele>
        <time>2012-12-29T08:21:00Z</time>
      </trkpt>
      <trkpt lat="44.20913" lon="0.66052">
        <ele>144.34</ele>
        <time>2012-12-29T08:21:04Z</time>
      </trkpt>
      <trkpt lat="44.20909" lon="0.66067">
        <ele>145.3</ele>
        <time>2012-12-29T08:21:10Z</time>
      </trkpt>
      <trkpt lat="44.20899" lon="0.661">
        <ele>146.74</ele>
        <time>2012-12-29T08:21:24Z</time>
      </trkpt>
      <trkpt lat="44.20897" lon="0.66109">
        <ele>146.74</ele>
        <time>2012-12-29T08:21:27Z</time>
      </trkpt>
      <trkpt lat="44.20889" lon="0.66142">
        <ele>146.74</ele>
        <time>2012-12-29T08:21:36Z</time>
      </trkpt>
      <trkpt lat="44.20879" lon="0.66188">
        <ele>147.22</ele>
        <time>2012-12-29T08:21:47Z</time>
      </trkpt>
      <trkpt lat="44.20861" lon="0.66233">
        <ele>147.22</ele>
        <time>2012-12-29T08:21:59Z</time>
      </trkpt>
      <trkpt lat="44.20843" lon="0.66271">
        <ele>145.78</ele>
        <time>2012-12-29T08:22:08Z</time>
      </trkpt>
      <trkpt lat="44.2083" lon="0.66307">
        <ele>146.74</ele>
        <time>2012-12-29T08:22:16Z</time>
      </trkpt>
      <trkpt lat="44.20827" lon="0.66351">
        <ele>147.22</ele>
        <time>2012-12-29T08:22:27Z</time>
      </trkpt>
      <trkpt lat="44.20831" lon="0.66398">
        <ele>147.7</ele>
        <time>2012-12-29T08:22:38Z</time>
      </trkpt>
      <trkpt lat="44.20822" lon="0.66447">
        <ele>147.7</ele>
        <time>2012-12-29T08:22:50Z</time>
      </trkpt>
      <trkpt lat="44.20822" lon="0.66494">
        <ele>147.7</ele>
        <time>2012-12-29T08:23:01Z</time>
      </trkpt>
      <trkpt lat="44.20847" lon="0.66545">
        <ele>147.7</ele>
        <time>2012-12-29T08:23:14Z</time>
      </trkpt>
      <trkpt lat="44.20868" lon="0.66566">
        <ele>146.74</ele>
        <time>2012-12-29T08:23:20Z</time>
      </trkpt>
      <trkpt lat="44.20876" lon="0.66572">
        <ele>146.74</ele>
        <time>2012-12-29T08:23:22Z</time>
      </trkpt>
      <trkpt lat="44.20926" lon="0.66591">
        <ele>147.22</ele>
        <time>2012-12-29T08:23:35Z</time>
      </trkpt>
      <trkpt lat="44.20935" lon="0.66601">
        <ele>147.22</ele>
        <time>2012-12-29T08:23:38Z</time>
      </trkpt>
      <trkpt lat="44.20947" lon="0.66608">
        <ele>147.22</ele>
        <time>2012-12-29T08:23:41Z</time>
      </trkpt>
      <trkpt lat="44.20949" lon="0.66627">
        <ele>146.74</ele>
        <time>2012-12-29T08:23:46Z</time>
      </trkpt>
      <trkpt lat="44.20932" lon="0.66665">
        <ele>148.66</ele>
        <time>2012-12-29T08:23:59Z</time>
      </trkpt>
      <trkpt lat="44.20924" lon="0.66686">
        <ele>149.14</ele>
        <time>2012-12-29T08:24:06Z</time>
      </trkpt>
      <trkpt lat="44.20919" lon="0.66696">
        <ele>149.14</ele>
        <time>2012-12-29T08:24:10Z</time>
      </trkpt>
      <trkpt lat="44.20899" lon="0.66745">
        <ele>151.06</ele>
        <time>2012-12-29T08:24:26Z</time>
      </trkpt>
      <trkpt lat="44.20886" lon="0.66781">
        <ele>152.99</ele>
        <time>2012-12-29T08:24:40Z</time>
      </trkpt>
      <trkpt lat="44.20887" lon="0.66783">
        <ele>153.47</ele>
        <time>2012-12-29T08:24:41Z</time>
      </trkpt>
      <trkpt lat="44.20912" lon="0.66812">
        <ele>154.43</ele>
        <time>2012-12-29T08:24:56Z</time>
      </trkpt>
      <trkpt lat="44.20937" lon="0.66841">
        <ele>154.43</ele>
        <time>2012-12-29T08:25:10Z</time>
      </trkpt>
      <trkpt lat="44.20962" lon="0.6687">
        <ele>155.39</ele>
        <time>2012-12-29T08:25:24Z</time>
      </trkpt>
      <trkpt lat="44.20982" lon="0.66891">
        <ele>156.35</ele>
        <time>2012-12-29T08:25:35Z</time>
      </trkpt>
      <trkpt lat="44.20989" lon="0.66899">
        <ele>156.35</ele>
        <time>2012-12-29T08:25:39Z</time>
      </trkpt>
      <trkpt lat="44.21019" lon="0.66932">
        <ele>159.72</ele>
        <time>2012-12-29T08:25:58Z</time>
      </trkpt>
      <trkpt lat="44.21044" lon="0.6696">
        <ele>159.72</ele>
        <time>2012-12-29T08:26:12Z</time>
      </trkpt>
      <trkpt lat="44.21046" lon="0.66964">
        <ele>159.24</ele>
        <time>2012-12-29T08:26:13Z</time>
      </trkpt>
      <trkpt lat="44.21055" lon="0.66984">
        <ele>157.31</ele>
        <time>2012-12-29T08:26:17Z</time>
      </trkpt>
      <trkpt lat="44.21065" lon="0.67004">
        <ele>155.87</ele>
        <time>2012-12-29T08:26:20Z</time>
      </trkpt>
      <trkpt lat="44.21073" lon="0.67017">
        <ele>155.39</ele>
        <time>2012-12-29T08:26:22Z</time>
      </trkpt>
      <trkpt lat="44.21094" lon="0.67043">
        <ele>154.91</ele>
        <time>2012-12-29T08:26:27Z</time>
      </trkpt>
      <trkpt lat="44.21131" lon="0.6709">
        <ele>156.83</ele>
        <time>2012-12-29T08:26:39Z</time>
      </trkpt>
      <trkpt lat="44.21147" lon="0.67124">
        <ele>158.75</ele>
        <time>2012-12-29T08:26:50Z</time>
      </trkpt>
      <trkpt lat="44.2115" lon="0.6714">
        <ele>158.75</ele>
        <time>2012-12-29T08:26:56Z</time>
      </trkpt>
      <trkpt lat="44.21173" lon="0.67193">
        <ele>155.87</ele>
        <time>2012-12-29T08:27:07Z</time>
      </trkpt>
      <trkpt lat="44.21175" lon="0.67198">
        <ele>155.39</ele>
        <time>2012-12-29T08:27:08Z</time>
      </trkpt>
      <trkpt lat="44.21178" lon="0.67209">
        <ele>154.43</ele>
        <time>2012-12-29T08:27:10Z</time>
      </trkpt>
      <trkpt lat="44.212" lon="0.67305">
        <ele>153.95</ele>
        <time>2012-12-29T08:27:27Z</time>
      </trkpt>
      <trkpt lat="44.21212" lon="0.67368">
        <ele>155.39</ele>
        <time>2012-12-29T08:27:42Z</time>
      </trkpt>
      <trkpt lat="44.21229" lon="0.67434">
        <ele>154.91</ele>
        <time>2012-12-29T08:27:57Z</time>
      </trkpt>
      <trkpt lat="44.21266" lon="0.6749">
        <ele>154.43</ele>
        <time>2012-12-29T08:28:12Z</time>
      </trkpt>
      <trkpt lat="44.21295" lon="0.67522">
        <ele>155.39</ele>
        <time>2012-12-29T08:28:25Z</time>
      </trkpt>
      <trkpt lat="44.21321" lon="0.67556">
        <ele>155.87</ele>
        <time>2012-12-29T08:28:39Z</time>
      </trkpt>
      <trkpt lat="44.21334" lon="0.67607">
        <ele>156.83</ele>
        <time>2012-12-29T08:28:53Z</time>
      </trkpt>
      <trkpt lat="44.21353" lon="0.67689">
        <ele>155.87</ele>
        <time>2012-12-29T08:29:10Z</time>
      </trkpt>
      <trkpt lat="44.21381" lon="0.67781">
        <ele>155.87</ele>
        <time>2012-12-29T08:29:28Z</time>
      </trkpt>
      <trkpt lat="44.21409" lon="0.67851">
        <ele>156.35</ele>
        <time>2012-12-29T08:29:44Z</time>
      </trkpt>
      <trkpt lat="44.21435" lon="0.67913">
        <ele>157.31</ele>
        <time>2012-12-29T08:30:01Z</time>
      </trkpt>
      <trkpt lat="44.21438" lon="0.67921">
        <ele>163.08</ele>
        <time>2012-12-29T08:30:11Z</time>
      </trkpt>
      <trkpt lat="44.21438" lon="0.67921">
        <ele>155.39</ele>
        <time>2012-12-29T08:30:12Z</time>
      </trkpt>
      <trkpt lat="44.21439" lon="0.67923">
        <ele>157.79</ele>
        <time>2012-12-29T08:30:25Z</time>
      </trkpt>
      <trkpt lat="44.21466" lon="0.67907">
        <ele>158.75</ele>
        <time>2012-12-29T08:30:36Z</time>
      </trkpt>
      <trkpt lat="44.21509" lon="0.67875">
        <ele>158.75</ele>
        <time>2012-12-29T08:30:51Z</time>
      </trkpt>
      <trkpt lat="44.21522" lon="0.67865">
        <ele>157.79</ele>
        <time>2012-12-29T08:30:54Z</time>
      </trkpt>
      <trkpt lat="44.21542" lon="0.67843">
        <ele>156.83</ele>
        <time>2012-12-29T08:30:59Z</time>
      </trkpt>
      <trkpt lat="44.21554" lon="0.6783">
        <ele>156.35</ele>
        <time>2012-12-29T08:31:02Z</time>
      </trkpt>
      <trkpt lat="44.21573" lon="0.67813">
        <ele>156.35</ele>
        <time>2012-12-29T08:31:10Z</time>
      </trkpt>
      <trkpt lat="44.21583" lon="0.67815">
        <ele>157.31</ele>
        <time>2012-12-29T08:31:14Z</time>
      </trkpt>
      <trkpt lat="44.21608" lon="0.67839">
        <ele>159.24</ele>
        <time>2012-12-29T08:31:26Z</time>
      </trkpt>
      <trkpt lat="44.2161" lon="0.6784">
        <ele>159.24</ele>
        <time>2012-12-29T08:31:27Z</time>
      </trkpt>
      <trkpt lat="44.21633" lon="0.67837">
        <ele>159.72</ele>
        <time>2012-12-29T08:31:37Z</time>
      </trkpt>
      <trkpt lat="44.21642" lon="0.67842">
        <ele>159.24</ele>
        <time>2012-12-29T08:31:40Z</time>
      </trkpt>
      <trkpt lat="44.2166" lon="0.67853">
        <ele>154.91</ele>
        <time>2012-12-29T08:31:46Z</time>
      </trkpt>
      <trkpt lat="44.21666" lon="0.67864">
        <ele>155.39</ele>
        <time>2012-12-29T08:31:48Z</time>
      </trkpt>
      <trkpt lat="44.2169" lon="0.6786">
        <ele>156.83</ele>
        <time>2012-12-29T08:31:55Z</time>
      </trkpt>
      <trkpt lat="44.21716" lon="0.67888">
        <ele>156.83</ele>
        <time>2012-12-29T08:32:05Z</time>
      </trkpt>
      <trkpt lat="44.2172" lon="0.67891">
        <ele>156.35</ele>
        <time>2012-12-29T08:32:06Z</time>
      </trkpt>
      <trkpt lat="44.21749" lon="0.67919">
        <ele>153.95</ele>
        <time>2012-12-29T08:32:13Z</time>
      </trkpt>
      <trkpt lat="44.21758" lon="0.67925">
        <ele>153.47</ele>
        <time>2012-12-29T08:32:16Z</time>
      </trkpt>
      <trkpt lat="44.2177" lon="0.67938">
        <ele>154.91</ele>
        <time>2012-12-29T08:32:21Z</time>
      </trkpt>
      <trkpt lat="44.21793" lon="0.67958">
        <ele>156.83</ele>
        <time>2012-12-29T08:32:32Z</time>
      </trkpt>
      <trkpt lat="44.21793" lon="0.67961">
        <ele>156.83</ele>
        <time>2012-12-29T08:32:33Z</time>
      </trkpt>
      <trkpt lat="44.21797" lon="0.67972">
        <ele>158.27</ele>
        <time>2012-12-29T08:32:37Z</time>
      </trkpt>
      <trkpt lat="44.21821" lon="0.67981">
        <ele>158.27</ele>
        <time>2012-12-29T08:32:46Z</time>
      </trkpt>
      <trkpt lat="44.21825" lon="0.67981">
        <ele>157.79</ele>
        <time>2012-12-29T08:32:48Z</time>
      </trkpt>
      <trkpt lat="44.2183" lon="0.67983">
        <ele>156.35</ele>
        <time>2012-12-29T08:32:51Z</time>
      </trkpt>
      <trkpt lat="44.21841" lon="0.67992">
        <ele>155.87</ele>
        <time>2012-12-29T08:32:56Z</time>
      </trkpt>
      <trkpt lat="44.21868" lon="0.68001">
        <ele>154.91</ele>
        <time>2012-12-29T08:33:04Z</time>
      </trkpt>
      <trkpt lat="44.21877" lon="0.68014">
        <ele>157.31</ele>
        <time>2012-12-29T08:33:10Z</time>
      </trkpt>
      <trkpt lat="44.21879" lon="0.68016">
        <ele>158.27</ele>
        <time>2012-12-29T08:33:13Z</time>
      </trkpt>
      <trkpt lat="44.21884" lon="0.68023">
        <ele>160.2</ele>
        <time>2012-12-29T08:33:19Z</time>
      </trkpt>
      <trkpt lat="44.21892" lon="0.68032">
        <ele>161.16</ele>
        <time>2012-12-29T08:33:25Z</time>
      </trkpt>
      <trkpt lat="44.21912" lon="0.68046">
        <ele>163.56</ele>
        <time>2012-12-29T08:33:35Z</time>
      </trkpt>
      <trkpt lat="44.21921" lon="0.68056">
        <ele>164.52</ele>
        <time>2012-12-29T08:33:43Z</time>
      </trkpt>
      <trkpt lat="44.21924" lon="0.6808">
        <ele>164.52</ele>
        <time>2012-12-29T08:33:50Z</time>
      </trkpt>
      <trkpt lat="44.21926" lon="0.68086">
        <ele>164.52</ele>
        <time>2012-12-29T08:33:52Z</time>
      </trkpt>
      <trkpt lat="44.21925" lon="0.68105">
        <ele>165</ele>
        <time>2012-12-29T08:33:57Z</time>
      </trkpt>
      <trkpt lat="44.21924" lon="0.68128">
        <ele>165.48</ele>
        <time>2012-12-29T08:34:03Z</time>
      </trkpt>
      <trkpt lat="44.21937" lon="0.68138">
        <ele>163.56</ele>
        <time>2012-12-29T08:34:08Z</time>
      </trkpt>
      <trkpt lat="44.2194" lon="0.68141">
        <ele>163.08</ele>
        <time>2012-12-29T08:34:09Z</time>
      </trkpt>
      <trkpt lat="44.21948" lon="0.68149">
        <ele>161.64</ele>
        <time>2012-12-29T08:34:11Z</time>
      </trkpt>
      <trkpt lat="44.21985" lon="0.68181">
        <ele>158.27</ele>
        <time>2012-12-29T08:34:18Z</time>
      </trkpt>
      <trkpt lat="44.21993" lon="0.68217">
        <ele>155.87</ele>
        <time>2012-12-29T08:34:27Z</time>
      </trkpt>
      <trkpt lat="44.21997" lon="0.68241">
        <ele>153.95</ele>
        <time>2012-12-29T08:34:32Z</time>
      </trkpt>
      <trkpt lat="44.22011" lon="0.6827">
        <ele>153.95</ele>
        <time>2012-12-29T08:34:39Z</time>
      </trkpt>
      <trkpt lat="44.22022" lon="0.68282">
        <ele>155.87</ele>
        <time>2012-12-29T08:34:44Z</time>
      </trkpt>
      <trkpt lat="44.22039" lon="0.68285">
        <ele>156.35</ele>
        <time>2012-12-29T08:34:50Z</time>
      </trkpt>
      <trkpt lat="44.22047" lon="0.68285">
        <ele>155.87</ele>
        <time>2012-12-29T08:34:52Z</time>
      </trkpt>
      <trkpt lat="44.22058" lon="0.6829">
        <ele>155.39</ele>
        <time>2012-12-29T08:34:56Z</time>
      </trkpt>
      <trkpt lat="44.22082" lon="0.68302">
        <ele>153.47</ele>
        <time>2012-12-29T08:35:03Z</time>
      </trkpt>
      <trkpt lat="44.22085" lon="0.68334">
        <ele>151.06</ele>
        <time>2012-12-29T08:35:11Z</time>
      </trkpt>
      <trkpt lat="44.22093" lon="0.68385">
        <ele>150.1</ele>
        <time>2012-12-29T08:35:20Z</time>
      </trkpt>
      <trkpt lat="44.22097" lon="0.68392">
        <ele>149.62</ele>
        <time>2012-12-29T08:35:31Z</time>
      </trkpt>
      <trkpt lat="44.22102" lon="0.68396">
        <ele>147.7</ele>
        <time>2012-12-29T08:35:43Z</time>
      </trkpt>
      <trkpt lat="44.22106" lon="0.684">
        <ele>147.22</ele>
        <time>2012-12-29T08:36:02Z</time>
      </trkpt>
      <trkpt lat="44.22111" lon="0.68404">
        <ele>146.74</ele>
        <time>2012-12-29T08:36:19Z</time>
      </trkpt>
      <trkpt lat="44.22113" lon="0.68406">
        <ele>146.26</ele>
        <time>2012-12-29T08:36:32Z</time>
      </trkpt>
      <trkpt lat="44.22112" lon="0.68407">
        <ele>146.26</ele>
        <time>2012-12-29T08:36:51Z</time>
      </trkpt>
      <trkpt lat="44.22112" lon="0.68408">
        <ele>146.74</ele>
        <time>2012-12-29T08:37:08Z</time>
      </trkpt>
      <trkpt lat="44.22107" lon="0.68409">
        <ele>147.7</ele>
        <time>2012-12-29T08:37:13Z</time>
      </trkpt>
      <trkpt lat="44.22104" lon="0.68409">
        <ele>148.66</ele>
        <time>2012-12-29T08:37:15Z</time>
      </trkpt>
      <trkpt lat="44.22089" lon="0.68417">
        <ele>150.58</ele>
        <time>2012-12-29T08:37:25Z</time>
      </trkpt>
      <trkpt lat="44.22087" lon="0.68419">
        <ele>151.06</ele>
        <time>2012-12-29T08:37:27Z</time>
      </trkpt>
      <trkpt lat="44.22083" lon="0.68421">
        <ele>151.54</ele>
        <time>2012-12-29T08:37:30Z</time>
      </trkpt>
      <trkpt lat="44.22074" lon="0.68421">
        <ele>152.03</ele>
        <time>2012-12-29T08:37:35Z</time>
      </trkpt>
      <trkpt lat="44.22071" lon="0.68422">
        <ele>152.51</ele>
        <time>2012-12-29T08:37:37Z</time>
      </trkpt>
      <trkpt lat="44.22059" lon="0.68426">
        <ele>152.51</ele>
        <time>2012-12-29T08:37:44Z</time>
      </trkpt>
      <trkpt lat="44.2205" lon="0.6843">
        <ele>152.99</ele>
        <time>2012-12-29T08:37:49Z</time>
      </trkpt>
      <trkpt lat="44.22044" lon="0.68433">
        <ele>153.47</ele>
        <time>2012-12-29T08:37:53Z</time>
      </trkpt>
      <trkpt lat="44.22033" lon="0.68437">
        <ele>154.43</ele>
        <time>2012-12-29T08:38:03Z</time>
      </trkpt>
      <trkpt lat="44.22018" lon="0.68445">
        <ele>155.39</ele>
        <time>2012-12-29T08:38:14Z</time>
      </trkpt>
      <trkpt lat="44.22014" lon="0.68446">
        <ele>155.39</ele>
        <time>2012-12-29T08:38:16Z</time>
      </trkpt>
      <trkpt lat="44.2201" lon="0.68447">
        <ele>156.35</ele>
        <time>2012-12-29T08:38:18Z</time>
      </trkpt>
      <trkpt lat="44.22008" lon="0.68447">
        <ele>155.87</ele>
        <time>2012-12-29T08:38:19Z</time>
      </trkpt>
      <trkpt lat="44.21989" lon="0.68462">
        <ele>156.35</ele>
        <time>2012-12-29T08:38:31Z</time>
      </trkpt>
      <trkpt lat="44.21987" lon="0.68462">
        <ele>156.35</ele>
        <time>2012-12-29T08:38:35Z</time>
      </trkpt>
      <trkpt lat="44.21992" lon="0.68475">
        <ele>154.43</ele>
        <time>2012-12-29T08:38:41Z</time>
      </trkpt>
      <trkpt lat="44.22" lon="0.68496">
        <ele>154.43</ele>
        <time>2012-12-29T08:38:47Z</time>
      </trkpt>
      <trkpt lat="44.21996" lon="0.68538">
        <ele>155.39</ele>
        <time>2012-12-29T08:38:58Z</time>
      </trkpt>
      <trkpt lat="44.2201" lon="0.68555">
        <ele>155.39</ele>
        <time>2012-12-29T08:39:07Z</time>
      </trkpt>
      <trkpt lat="44.22012" lon="0.6856">
        <ele>154.91</ele>
        <time>2012-12-29T08:39:08Z</time>
      </trkpt>
      <trkpt lat="44.22019" lon="0.68578">
        <ele>153.95</ele>
        <time>2012-12-29T08:39:11Z</time>
      </trkpt>
      <trkpt lat="44.22019" lon="0.68608">
        <ele>153.47</ele>
        <time>2012-12-29T08:39:18Z</time>
      </trkpt>
      <trkpt lat="44.22022" lon="0.6861">
        <ele>153.95</ele>
        <time>2012-12-29T08:39:19Z</time>
      </trkpt>
      <trkpt lat="44.22028" lon="0.68618">
        <ele>153.95</ele>
        <time>2012-12-29T08:39:22Z</time>
      </trkpt>
      <trkpt lat="44.22038" lon="0.68626">
        <ele>156.35</ele>
        <time>2012-12-29T08:39:35Z</time>
      </trkpt>
      <trkpt lat="44.22038" lon="0.68626">
        <ele>153.47</ele>
        <time>2012-12-29T08:39:38Z</time>
      </trkpt>
      <trkpt lat="44.22044" lon="0.68632">
        <ele>153.95</ele>
        <time>2012-12-29T08:39:52Z</time>
      </trkpt>
      <trkpt lat="44.22045" lon="0.68633">
        <ele>154.43</ele>
        <time>2012-12-29T08:39:53Z</time>
      </trkpt>
      <trkpt lat="44.22044" lon="0.68666">
        <ele>152.51</ele>
        <time>2012-12-29T08:40:03Z</time>
      </trkpt>
      <trkpt lat="44.22044" lon="0.68677">
        <ele>152.51</ele>
        <time>2012-12-29T08:40:05Z</time>
      </trkpt>
      <trkpt lat="44.2204" lon="0.68712">
        <ele>152.51</ele>
        <time>2012-12-29T08:40:15Z</time>
      </trkpt>
      <trkpt lat="44.22041" lon="0.68737">
        <ele>153.47</ele>
        <time>2012-12-29T08:40:24Z</time>
      </trkpt>
      <trkpt lat="44.2204" lon="0.68743">
        <ele>153.47</ele>
        <time>2012-12-29T08:40:35Z</time>
      </trkpt>
      <trkpt lat="44.22036" lon="0.68752">
        <ele>153.95</ele>
        <time>2012-12-29T08:40:39Z</time>
      </trkpt>
      <trkpt lat="44.22034" lon="0.68755">
        <ele>153.95</ele>
        <time>2012-12-29T08:40:41Z</time>
      </trkpt>
      <trkpt lat="44.22033" lon="0.68766">
        <ele>154.43</ele>
        <time>2012-12-29T08:40:47Z</time>
      </trkpt>
      <trkpt lat="44.22035" lon="0.68778">
        <ele>155.87</ele>
        <time>2012-12-29T08:40:52Z</time>
      </trkpt>
      <trkpt lat="44.22031" lon="0.68791">
        <ele>156.35</ele>
        <time>2012-12-29T08:40:57Z</time>
      </trkpt>
      <trkpt lat="44.22026" lon="0.68802">
        <ele>156.35</ele>
        <time>2012-12-29T08:41:02Z</time>
      </trkpt>
      <trkpt lat="44.22026" lon="0.68813">
        <ele>156.83</ele>
        <time>2012-12-29T08:41:06Z</time>
      </trkpt>
      <trkpt lat="44.22031" lon="0.68823">
        <ele>155.39</ele>
        <time>2012-12-29T08:41:10Z</time>
      </trkpt>
      <trkpt lat="44.22035" lon="0.68824">
        <ele>155.39</ele>
        <time>2012-12-29T08:41:12Z</time>
      </trkpt>
      <trkpt lat="44.22043" lon="0.68833">
        <ele>153.95</ele>
        <time>2012-12-29T08:41:17Z</time>
      </trkpt>
      <trkpt lat="44.22048" lon="0.6884">
        <ele>152.99</ele>
        <time>2012-12-29T08:41:20Z</time>
      </trkpt>
      <trkpt lat="44.22055" lon="0.68856">
        <ele>152.03</ele>
        <time>2012-12-29T08:41:24Z</time>
      </trkpt>
      <trkpt lat="44.22057" lon="0.68887">
        <ele>151.54</ele>
        <time>2012-12-29T08:41:35Z</time>
      </trkpt>
      <trkpt lat="44.22058" lon="0.68893">
        <ele>151.54</ele>
        <time>2012-12-29T08:41:37Z</time>
      </trkpt>
      <trkpt lat="44.22061" lon="0.68912">
        <ele>152.51</ele>
        <time>2012-12-29T08:41:44Z</time>
      </trkpt>
      <trkpt lat="44.22046" lon="0.68937">
        <ele>153.47</ele>
        <time>2012-12-29T08:41:56Z</time>
      </trkpt>
      <trkpt lat="44.22039" lon="0.68946">
        <ele>153.47</ele>
        <time>2012-12-29T08:42:01Z</time>
      </trkpt>
      <trkpt lat="44.22029" lon="0.68958">
        <ele>153.47</ele>
        <time>2012-12-29T08:42:07Z</time>
      </trkpt>
      <trkpt lat="44.22021" lon="0.68966">
        <ele>153.95</ele>
        <time>2012-12-29T08:42:13Z</time>
      </trkpt>
      <trkpt lat="44.22014" lon="0.68975">
        <ele>154.91</ele>
        <time>2012-12-29T08:42:18Z</time>
      </trkpt>
      <trkpt lat="44.22001" lon="0.68993">
        <ele>155.87</ele>
        <time>2012-12-29T08:42:31Z</time>
      </trkpt>
      <trkpt lat="44.22" lon="0.68995">
        <ele>155.39</ele>
        <time>2012-12-29T08:42:32Z</time>
      </trkpt>
      <trkpt lat="44.21987" lon="0.69009">
        <ele>155.87</ele>
        <time>2012-12-29T08:42:40Z</time>
      </trkpt>
      <trkpt lat="44.21968" lon="0.69023">
        <ele>156.83</ele>
        <time>2012-12-29T08:42:52Z</time>
      </trkpt>
      <trkpt lat="44.21965" lon="0.69024">
        <ele>156.35</ele>
        <time>2012-12-29T08:42:54Z</time>
      </trkpt>
      <trkpt lat="44.2196" lon="0.69023">
        <ele>158.27</ele>
        <time>2012-12-29T08:42:58Z</time>
      </trkpt>
      <trkpt lat="44.21955" lon="0.69022">
        <ele>160.2</ele>
        <time>2012-12-29T08:43:09Z</time>
      </trkpt>
      <trkpt lat="44.21952" lon="0.69018">
        <ele>160.68</ele>
        <time>2012-12-29T08:43:13Z</time>
      </trkpt>
      <trkpt lat="44.2195" lon="0.69014">
        <ele>161.64</ele>
        <time>2012-12-29T08:43:16Z</time>
      </trkpt>
      <trkpt lat="44.21947" lon="0.69001">
        <ele>162.6</ele>
        <time>2012-12-29T08:43:30Z</time>
      </trkpt>
      <trkpt lat="44.21946" lon="0.68995">
        <ele>163.08</ele>
        <time>2012-12-29T08:43:34Z</time>
      </trkpt>
      <trkpt lat="44.21944" lon="0.6898">
        <ele>163.56</ele>
        <time>2012-12-29T08:43:39Z</time>
      </trkpt>
      <trkpt lat="44.21941" lon="0.68965">
        <ele>162.6</ele>
        <time>2012-12-29T08:43:44Z</time>
      </trkpt>
      <trkpt lat="44.21925" lon="0.68944">
        <ele>160.68</ele>
        <time>2012-12-29T08:43:52Z</time>
      </trkpt>
      <trkpt lat="44.21905" lon="0.6893">
        <ele>158.27</ele>
        <time>2012-12-29T08:43:57Z</time>
      </trkpt>
      <trkpt lat="44.21887" lon="0.68916">
        <ele>155.39</ele>
        <time>2012-12-29T08:44:03Z</time>
      </trkpt>
      <trkpt lat="44.21885" lon="0.68916">
        <ele>155.39</ele>
        <time>2012-12-29T08:44:05Z</time>
      </trkpt>
      <trkpt lat="44.21873" lon="0.68916">
        <ele>155.39</ele>
        <time>2012-12-29T08:44:12Z</time>
      </trkpt>
      <trkpt lat="44.21861" lon="0.68924">
        <ele>156.83</ele>
        <time>2012-12-29T08:44:20Z</time>
      </trkpt>
      <trkpt lat="44.21844" lon="0.6894">
        <ele>159.72</ele>
        <time>2012-12-29T08:44:31Z</time>
      </trkpt>
      <trkpt lat="44.21842" lon="0.68942">
        <ele>159.72</ele>
        <time>2012-12-29T08:44:33Z</time>
      </trkpt>
      <trkpt lat="44.21839" lon="0.68942">
        <ele>160.2</ele>
        <time>2012-12-29T08:44:35Z</time>
      </trkpt>
      <trkpt lat="44.21836" lon="0.68943">
        <ele>162.12</ele>
        <time>2012-12-29T08:44:38Z</time>
      </trkpt>
      <trkpt lat="44.21832" lon="0.68943">
        <ele>162.12</ele>
        <time>2012-12-29T08:44:52Z</time>
      </trkpt>
      <trkpt lat="44.21831" lon="0.68945">
        <ele>162.12</ele>
        <time>2012-12-29T08:44:58Z</time>
      </trkpt>
      <trkpt lat="44.21826" lon="0.68949">
        <ele>163.08</ele>
        <time>2012-12-29T08:45:02Z</time>
      </trkpt>
      <trkpt lat="44.21823" lon="0.68961">
        <ele>164.52</ele>
        <time>2012-12-29T08:45:08Z</time>
      </trkpt>
      <trkpt lat="44.21818" lon="0.68966">
        <ele>165.48</ele>
        <time>2012-12-29T08:45:21Z</time>
      </trkpt>
      <trkpt lat="44.21817" lon="0.68968">
        <ele>165</ele>
        <time>2012-12-29T08:45:36Z</time>
      </trkpt>
      <trkpt lat="44.21808" lon="0.68974">
        <ele>165</ele>
        <time>2012-12-29T08:45:43Z</time>
      </trkpt>
      <trkpt lat="44.21803" lon="0.68989">
        <ele>165</ele>
        <time>2012-12-29T08:45:52Z</time>
      </trkpt>
      <trkpt lat="44.21803" lon="0.68992">
        <ele>164.52</ele>
        <time>2012-12-29T08:45:55Z</time>
      </trkpt>
      <trkpt lat="44.21808" lon="0.68998">
        <ele>164.52</ele>
        <time>2012-12-29T08:45:59Z</time>
      </trkpt>
      <trkpt lat="44.21815" lon="0.69017">
        <ele>164.52</ele>
        <time>2012-12-29T08:46:07Z</time>
      </trkpt>
      <trkpt lat="44.21818" lon="0.69033">
        <ele>165.48</ele>
        <time>2012-12-29T08:46:14Z</time>
      </trkpt>
      <trkpt lat="44.21826" lon="0.6905">
        <ele>166.45</ele>
        <time>2012-12-29T08:46:22Z</time>
      </trkpt>
      <trkpt lat="44.2183" lon="0.69079">
        <ele>168.37</ele>
        <time>2012-12-29T08:46:34Z</time>
      </trkpt>
      <trkpt lat="44.21819" lon="0.69092">
        <ele>169.33</ele>
        <time>2012-12-29T08:46:42Z</time>
      </trkpt>
      <trkpt lat="44.21812" lon="0.69087">
        <ele>169.33</ele>
        <time>2012-12-29T08:46:46Z</time>
      </trkpt>
      <trkpt lat="44.21809" lon="0.69083">
        <ele>169.33</ele>
        <time>2012-12-29T08:46:48Z</time>
      </trkpt>
      <trkpt lat="44.21806" lon="0.69079">
        <ele>169.33</ele>
        <time>2012-12-29T08:47:00Z</time>
      </trkpt>
      <trkpt lat="44.21807" lon="0.69079">
        <ele>168.85</ele>
        <time>2012-12-29T08:47:11Z</time>
      </trkpt>
      <trkpt lat="44.21803" lon="0.69071">
        <ele>168.37</ele>
        <time>2012-12-29T08:47:15Z</time>
      </trkpt>
      <trkpt lat="44.2178" lon="0.69037">
        <ele>167.89</ele>
        <time>2012-12-29T08:47:28Z</time>
      </trkpt>
      <trkpt lat="44.21762" lon="0.69024">
        <ele>168.85</ele>
        <time>2012-12-29T08:47:40Z</time>
      </trkpt>
      <trkpt lat="44.21753" lon="0.69019">
        <ele>170.77</ele>
        <time>2012-12-29T08:47:46Z</time>
      </trkpt>
      <trkpt lat="44.21752" lon="0.6902">
        <ele>171.25</ele>
        <time>2012-12-29T08:47:48Z</time>
      </trkpt>
      <trkpt lat="44.21751" lon="0.69022">
        <ele>171.25</ele>
        <time>2012-12-29T08:47:58Z</time>
      </trkpt>
      <trkpt lat="44.21751" lon="0.69023">
        <ele>170.77</ele>
        <time>2012-12-29T08:48:01Z</time>
      </trkpt>
      <trkpt lat="44.21749" lon="0.69025">
        <ele>171.73</ele>
        <time>2012-12-29T08:48:11Z</time>
      </trkpt>
      <trkpt lat="44.2175" lon="0.69026">
        <ele>166.45</ele>
        <time>2012-12-29T08:48:19Z</time>
      </trkpt>
      <trkpt lat="44.2175" lon="0.69026">
        <ele>171.73</ele>
        <time>2012-12-29T08:48:20Z</time>
      </trkpt>
      <trkpt lat="44.2175" lon="0.69026">
        <ele>174.62</ele>
        <time>2012-12-29T08:48:26Z</time>
      </trkpt>
      <trkpt lat="44.2175" lon="0.69026">
        <ele>171.73</ele>
        <time>2012-12-29T08:48:28Z</time>
      </trkpt>
      <trkpt lat="44.21749" lon="0.69027">
        <ele>172.21</ele>
        <time>2012-12-29T08:48:49Z</time>
      </trkpt>
      <trkpt lat="44.21751" lon="0.69036">
        <ele>172.21</ele>
        <time>2012-12-29T08:48:53Z</time>
      </trkpt>
      <trkpt lat="44.21779" lon="0.69095">
        <ele>171.73</ele>
        <time>2012-12-29T08:49:10Z</time>
      </trkpt>
      <trkpt lat="44.21813" lon="0.69158">
        <ele>171.25</ele>
        <time>2012-12-29T08:49:26Z</time>
      </trkpt>
      <trkpt lat="44.21835" lon="0.69235">
        <ele>171.73</ele>
        <time>2012-12-29T08:49:44Z</time>
      </trkpt>
      <trkpt lat="44.21853" lon="0.69295">
        <ele>172.21</ele>
        <time>2012-12-29T08:49:59Z</time>
      </trkpt>
      <trkpt lat="44.21872" lon="0.69373">
        <ele>172.21</ele>
        <time>2012-12-29T08:50:17Z</time>
      </trkpt>
      <trkpt lat="44.21859" lon="0.69422">
        <ele>172.21</ele>
        <time>2012-12-29T08:50:28Z</time>
      </trkpt>
      <trkpt lat="44.21843" lon="0.695">
        <ele>172.69</ele>
        <time>2012-12-29T08:50:45Z</time>
      </trkpt>
      <trkpt lat="44.21831" lon="0.69578">
        <ele>173.17</ele>
        <time>2012-12-29T08:51:01Z</time>
      </trkpt>
      <trkpt lat="44.21813" lon="0.69657">
        <ele>172.21</ele>
        <time>2012-12-29T08:51:17Z</time>
      </trkpt>
      <trkpt lat="44.21807" lon="0.69672">
        <ele>171.73</ele>
        <time>2012-12-29T08:51:20Z</time>
      </trkpt>
      <trkpt lat="44.218" lon="0.69764">
        <ele>168.85</ele>
        <time>2012-12-29T08:51:34Z</time>
      </trkpt>
      <trkpt lat="44.21799" lon="0.69788">
        <ele>167.41</ele>
        <time>2012-12-29T08:51:37Z</time>
      </trkpt>
      <trkpt lat="44.21792" lon="0.69847">
        <ele>163.56</ele>
        <time>2012-12-29T08:51:43Z</time>
      </trkpt>
      <trkpt lat="44.21787" lon="0.69884">
        <ele>160.2</ele>
        <time>2012-12-29T08:51:46Z</time>
      </trkpt>
      <trkpt lat="44.21785" lon="0.69912">
        <ele>157.79</ele>
        <time>2012-12-29T08:51:48Z</time>
      </trkpt>
      <trkpt lat="44.21783" lon="0.69954">
        <ele>156.83</ele>
        <time>2012-12-29T08:51:52Z</time>
      </trkpt>
      <trkpt lat="44.21781" lon="0.69978">
        <ele>156.83</ele>
        <time>2012-12-29T08:52:00Z</time>
      </trkpt>
      <trkpt lat="44.21781" lon="0.69979">
        <ele>156.35</ele>
        <time>2012-12-29T08:52:01Z</time>
      </trkpt>
      <trkpt lat="44.21787" lon="0.69982">
        <ele>155.87</ele>
        <time>2012-12-29T08:52:10Z</time>
      </trkpt>
      <trkpt lat="44.2177" lon="0.69994">
        <ele>156.35</ele>
        <time>2012-12-29T08:52:19Z</time>
      </trkpt>
      <trkpt lat="44.21742" lon="0.70009">
        <ele>156.83</ele>
        <time>2012-12-29T08:52:29Z</time>
      </trkpt>
      <trkpt lat="44.21739" lon="0.7001">
        <ele>157.31</ele>
        <time>2012-12-29T08:52:30Z</time>
      </trkpt>
      <trkpt lat="44.2172" lon="0.70016">
        <ele>156.35</ele>
        <time>2012-12-29T08:52:36Z</time>
      </trkpt>
      <trkpt lat="44.21705" lon="0.70027">
        <ele>155.39</ele>
        <time>2012-12-29T08:52:40Z</time>
      </trkpt>
      <trkpt lat="44.2169" lon="0.70037">
        <ele>156.83</ele>
        <time>2012-12-29T08:52:44Z</time>
      </trkpt>
      <trkpt lat="44.21657" lon="0.7006">
        <ele>159.24</ele>
        <time>2012-12-29T08:52:56Z</time>
      </trkpt>
      <trkpt lat="44.21629" lon="0.70072">
        <ele>157.79</ele>
        <time>2012-12-29T08:53:04Z</time>
      </trkpt>
      <trkpt lat="44.21576" lon="0.70102">
        <ele>159.72</ele>
        <time>2012-12-29T08:53:20Z</time>
      </trkpt>
      <trkpt lat="44.21537" lon="0.70116">
        <ele>160.68</ele>
        <time>2012-12-29T08:53:34Z</time>
      </trkpt>
      <trkpt lat="44.21492" lon="0.70123">
        <ele>160.68</ele>
        <time>2012-12-29T08:53:49Z</time>
      </trkpt>
      <trkpt lat="44.21453" lon="0.70135">
        <ele>161.16</ele>
        <time>2012-12-29T08:54:03Z</time>
      </trkpt>
      <trkpt lat="44.21416" lon="0.70147">
        <ele>162.12</ele>
        <time>2012-12-29T08:54:18Z</time>
      </trkpt>
      <trkpt lat="44.2138" lon="0.70144">
        <ele>163.08</ele>
        <time>2012-12-29T08:54:32Z</time>
      </trkpt>
      <trkpt lat="44.21343" lon="0.70129">
        <ele>162.6</ele>
        <time>2012-12-29T08:54:46Z</time>
      </trkpt>
      <trkpt lat="44.21303" lon="0.70085">
        <ele>160.68</ele>
        <time>2012-12-29T08:54:59Z</time>
      </trkpt>
      <trkpt lat="44.21275" lon="0.7005">
        <ele>159.24</ele>
        <time>2012-12-29T08:55:10Z</time>
      </trkpt>
      <trkpt lat="44.2124" lon="0.70005">
        <ele>158.27</ele>
        <time>2012-12-29T08:55:25Z</time>
      </trkpt>
      <trkpt lat="44.21229" lon="0.69989">
        <ele>158.27</ele>
        <time>2012-12-29T08:55:31Z</time>
      </trkpt>
      <trkpt lat="44.21227" lon="0.69978">
        <ele>158.75</ele>
        <time>2012-12-29T08:55:35Z</time>
      </trkpt>
      <trkpt lat="44.21229" lon="0.69973">
        <ele>158.27</ele>
        <time>2012-12-29T08:55:37Z</time>
      </trkpt>
      <trkpt lat="44.21236" lon="0.69964">
        <ele>159.24</ele>
        <time>2012-12-29T08:55:42Z</time>
      </trkpt>
      <trkpt lat="44.21262" lon="0.69932">
        <ele>161.16</ele>
        <time>2012-12-29T08:55:57Z</time>
      </trkpt>
      <trkpt lat="44.21279" lon="0.6991">
        <ele>163.08</ele>
        <time>2012-12-29T08:56:09Z</time>
      </trkpt>
      <trkpt lat="44.21294" lon="0.69891">
        <ele>164.52</ele>
        <time>2012-12-29T08:56:20Z</time>
      </trkpt>
      <trkpt lat="44.21314" lon="0.69868">
        <ele>165.48</ele>
        <time>2012-12-29T08:56:32Z</time>
      </trkpt>
      <trkpt lat="44.21337" lon="0.69845">
        <ele>166.45</ele>
        <time>2012-12-29T08:56:43Z</time>
      </trkpt>
      <trkpt lat="44.21359" lon="0.6982">
        <ele>166.45</ele>
        <time>2012-12-29T08:56:54Z</time>
      </trkpt>
      <trkpt lat="44.21386" lon="0.69791">
        <ele>165.48</ele>
        <time>2012-12-29T08:57:03Z</time>
      </trkpt>
      <trkpt lat="44.21413" lon="0.69768">
        <ele>164.52</ele>
        <time>2012-12-29T08:57:10Z</time>
      </trkpt>
      <trkpt lat="44.2143" lon="0.69739">
        <ele>162.6</ele>
        <time>2012-12-29T08:57:15Z</time>
      </trkpt>
      <trkpt lat="44.21442" lon="0.697">
        <ele>160.2</ele>
        <time>2012-12-29T08:57:20Z</time>
      </trkpt>
      <trkpt lat="44.21454" lon="0.69653">
        <ele>156.83</ele>
        <time>2012-12-29T08:57:25Z</time>
      </trkpt>
      <trkpt lat="44.21464" lon="0.69603">
        <ele>153.47</ele>
        <time>2012-12-29T08:57:30Z</time>
      </trkpt>
      <trkpt lat="44.21468" lon="0.69581">
        <ele>152.03</ele>
        <time>2012-12-29T08:57:33Z</time>
      </trkpt>
      <trkpt lat="44.21484" lon="0.69555">
        <ele>150.58</ele>
        <time>2012-12-29T08:57:41Z</time>
      </trkpt>
      <trkpt lat="44.21517" lon="0.69538">
        <ele>151.06</ele>
        <time>2012-12-29T08:57:51Z</time>
      </trkpt>
      <trkpt lat="44.21531" lon="0.6953">
        <ele>150.58</ele>
        <time>2012-12-29T08:57:55Z</time>
      </trkpt>
      <trkpt lat="44.21539" lon="0.69526">
        <ele>150.1</ele>
        <time>2012-12-29T08:57:57Z</time>
      </trkpt>
      <trkpt lat="44.21557" lon="0.69515">
        <ele>149.14</ele>
        <time>2012-12-29T08:58:01Z</time>
      </trkpt>
      <trkpt lat="44.21576" lon="0.695">
        <ele>148.66</ele>
        <time>2012-12-29T08:58:05Z</time>
      </trkpt>
      <trkpt lat="44.21596" lon="0.69468">
        <ele>148.18</ele>
        <time>2012-12-29T08:58:13Z</time>
      </trkpt>
      <trkpt lat="44.21603" lon="0.69445">
        <ele>149.14</ele>
        <time>2012-12-29T08:58:26Z</time>
      </trkpt>
      <trkpt lat="44.21603" lon="0.69444">
        <ele>149.14</ele>
        <time>2012-12-29T08:58:27Z</time>
      </trkpt>
      <trkpt lat="44.21604" lon="0.6944">
        <ele>149.62</ele>
        <time>2012-12-29T08:58:29Z</time>
      </trkpt>
      <trkpt lat="44.21603" lon="0.69434">
        <ele>149.62</ele>
        <time>2012-12-29T08:58:36Z</time>
      </trkpt>
      <trkpt lat="44.21601" lon="0.69425">
        <ele>150.1</ele>
        <time>2012-12-29T08:58:40Z</time>
      </trkpt>
      <trkpt lat="44.21601" lon="0.69419">
        <ele>151.06</ele>
        <time>2012-12-29T08:58:43Z</time>
      </trkpt>
      <trkpt lat="44.21595" lon="0.69411">
        <ele>150.58</ele>
        <time>2012-12-29T08:58:51Z</time>
      </trkpt>
      <trkpt lat="44.21583" lon="0.69402">
        <ele>151.06</ele>
        <time>2012-12-29T08:58:57Z</time>
      </trkpt>
      <trkpt lat="44.21549" lon="0.69356">
        <ele>153.47</ele>
        <time>2012-12-29T08:59:17Z</time>
      </trkpt>
      <trkpt lat="44.21525" lon="0.69318">
        <ele>156.83</ele>
        <time>2012-12-29T08:59:33Z</time>
      </trkpt>
      <trkpt lat="44.21503" lon="0.69275">
        <ele>156.35</ele>
        <time>2012-12-29T08:59:46Z</time>
      </trkpt>
      <trkpt lat="44.215" lon="0.69266">
        <ele>155.87</ele>
        <time>2012-12-29T08:59:48Z</time>
      </trkpt>
      <trkpt lat="44.21478" lon="0.69213">
        <ele>153.95</ele>
        <time>2012-12-29T08:59:57Z</time>
      </trkpt>
      <trkpt lat="44.21473" lon="0.69199">
        <ele>153.47</ele>
        <time>2012-12-29T08:59:59Z</time>
      </trkpt>
      <trkpt lat="44.21456" lon="0.69179">
        <ele>152.03</ele>
        <time>2012-12-29T09:00:03Z</time>
      </trkpt>
      <trkpt lat="44.21434" lon="0.69176">
        <ele>151.06</ele>
        <time>2012-12-29T09:00:07Z</time>
      </trkpt>
      <trkpt lat="44.21396" lon="0.69165">
        <ele>150.58</ele>
        <time>2012-12-29T09:00:14Z</time>
      </trkpt>
      <trkpt lat="44.21363" lon="0.69177">
        <ele>150.1</ele>
        <time>2012-12-29T09:00:20Z</time>
      </trkpt>
      <trkpt lat="44.21341" lon="0.69185">
        <ele>150.1</ele>
        <time>2012-12-29T09:00:24Z</time>
      </trkpt>
      <trkpt lat="44.21325" lon="0.69186">
        <ele>150.58</ele>
        <time>2012-12-29T09:00:27Z</time>
      </trkpt>
      <trkpt lat="44.21283" lon="0.6916">
        <ele>149.62</ele>
        <time>2012-12-29T09:00:36Z</time>
      </trkpt>
      <trkpt lat="44.21279" lon="0.69155">
        <ele>150.1</ele>
        <time>2012-12-29T09:00:37Z</time>
      </trkpt>
      <trkpt lat="44.21266" lon="0.69136">
        <ele>151.06</ele>
        <time>2012-12-29T09:00:41Z</time>
      </trkpt>
      <trkpt lat="44.21258" lon="0.69104">
        <ele>153.47</ele>
        <time>2012-12-29T09:00:47Z</time>
      </trkpt>
      <trkpt lat="44.21245" lon="0.69039">
        <ele>156.83</ele>
        <time>2012-12-29T09:01:00Z</time>
      </trkpt>
      <trkpt lat="44.21224" lon="0.68983">
        <ele>157.31</ele>
        <time>2012-12-29T09:01:12Z</time>
      </trkpt>
      <trkpt lat="44.21195" lon="0.6896">
        <ele>153.95</ele>
        <time>2012-12-29T09:01:18Z</time>
      </trkpt>
      <trkpt lat="44.21165" lon="0.68942">
        <ele>151.06</ele>
        <time>2012-12-29T09:01:22Z</time>
      </trkpt>
      <trkpt lat="44.21158" lon="0.68937">
        <ele>150.58</ele>
        <time>2012-12-29T09:01:23Z</time>
      </trkpt>
      <trkpt lat="44.211" lon="0.68904">
        <ele>148.66</ele>
        <time>2012-12-29T09:01:31Z</time>
      </trkpt>
      <trkpt lat="44.21059" lon="0.68851">
        <ele>150.1</ele>
        <time>2012-12-29T09:01:40Z</time>
      </trkpt>
      <trkpt lat="44.21019" lon="0.68823">
        <ele>149.62</ele>
        <time>2012-12-29T09:01:48Z</time>
      </trkpt>
      <trkpt lat="44.21008" lon="0.68818">
        <ele>148.66</ele>
        <time>2012-12-29T09:01:50Z</time>
      </trkpt>
      <trkpt lat="44.20951" lon="0.68789">
        <ele>152.03</ele>
        <time>2012-12-29T09:02:03Z</time>
      </trkpt>
      <trkpt lat="44.20947" lon="0.68787">
        <ele>152.51</ele>
        <time>2012-12-29T09:02:05Z</time>
      </trkpt>
      <trkpt lat="44.2091" lon="0.68801">
        <ele>152.99</ele>
        <time>2012-12-29T09:02:17Z</time>
      </trkpt>
      <trkpt lat="44.20856" lon="0.68831">
        <ele>152.99</ele>
        <time>2012-12-29T09:02:32Z</time>
      </trkpt>
      <trkpt lat="44.20797" lon="0.68815">
        <ele>154.43</ele>
        <time>2012-12-29T09:02:47Z</time>
      </trkpt>
      <trkpt lat="44.20732" lon="0.68794">
        <ele>154.43</ele>
        <time>2012-12-29T09:03:03Z</time>
      </trkpt>
      <trkpt lat="44.20668" lon="0.6877">
        <ele>156.35</ele>
        <time>2012-12-29T09:03:20Z</time>
      </trkpt>
      <trkpt lat="44.20643" lon="0.6876">
        <ele>156.35</ele>
        <time>2012-12-29T09:03:28Z</time>
      </trkpt>
      <trkpt lat="44.20604" lon="0.68725">
        <ele>152.51</ele>
        <time>2012-12-29T09:03:36Z</time>
      </trkpt>
      <trkpt lat="44.20575" lon="0.68703">
        <ele>148.66</ele>
        <time>2012-12-29T09:03:40Z</time>
      </trkpt>
      <trkpt lat="44.20501" lon="0.68656">
        <ele>146.74</ele>
        <time>2012-12-29T09:03:51Z</time>
      </trkpt>
      <trkpt lat="44.20475" lon="0.68626">
        <ele>148.18</ele>
        <time>2012-12-29T09:03:58Z</time>
      </trkpt>
      <trkpt lat="44.2048" lon="0.68612">
        <ele>149.62</ele>
        <time>2012-12-29T09:04:05Z</time>
      </trkpt>
      <trkpt lat="44.20485" lon="0.68601">
        <ele>150.58</ele>
        <time>2012-12-29T09:04:10Z</time>
      </trkpt>
      <trkpt lat="44.20504" lon="0.68568">
        <ele>154.43</ele>
        <time>2012-12-29T09:04:25Z</time>
      </trkpt>
      <trkpt lat="44.20521" lon="0.68538">
        <ele>156.35</ele>
        <time>2012-12-29T09:04:40Z</time>
      </trkpt>
      <trkpt lat="44.20536" lon="0.68505">
        <ele>159.24</ele>
        <time>2012-12-29T09:04:55Z</time>
      </trkpt>
      <trkpt lat="44.2055" lon="0.68481">
        <ele>162.12</ele>
        <time>2012-12-29T09:05:08Z</time>
      </trkpt>
      <trkpt lat="44.20561" lon="0.68453">
        <ele>164.52</ele>
        <time>2012-12-29T09:05:20Z</time>
      </trkpt>
      <trkpt lat="44.20568" lon="0.68417">
        <ele>166.93</ele>
        <time>2012-12-29T09:05:35Z</time>
      </trkpt>
      <trkpt lat="44.20577" lon="0.68384">
        <ele>169.81</ele>
        <time>2012-12-29T09:05:49Z</time>
      </trkpt>
      <trkpt lat="44.20585" lon="0.68347">
        <ele>172.21</ele>
        <time>2012-12-29T09:06:04Z</time>
      </trkpt>
      <trkpt lat="44.20597" lon="0.68306">
        <ele>174.62</ele>
        <time>2012-12-29T09:06:20Z</time>
      </trkpt>
      <trkpt lat="44.20591" lon="0.68293">
        <ele>175.1</ele>
        <time>2012-12-29T09:06:25Z</time>
      </trkpt>
      <trkpt lat="44.20555" lon="0.68264">
        <ele>175.58</ele>
        <time>2012-12-29T09:06:41Z</time>
      </trkpt>
      <trkpt lat="44.20526" lon="0.68243">
        <ele>177.02</ele>
        <time>2012-12-29T09:06:54Z</time>
      </trkpt>
      <trkpt lat="44.20507" lon="0.68239">
        <ele>177.5</ele>
        <time>2012-12-29T09:07:03Z</time>
      </trkpt>
      <trkpt lat="44.20462" lon="0.68225">
        <ele>177.98</ele>
        <time>2012-12-29T09:07:16Z</time>
      </trkpt>
      <trkpt lat="44.20403" lon="0.68204">
        <ele>174.62</ele>
        <time>2012-12-29T09:07:27Z</time>
      </trkpt>
      <trkpt lat="44.20384" lon="0.682">
        <ele>173.17</ele>
        <time>2012-12-29T09:07:30Z</time>
      </trkpt>
      <trkpt lat="44.20366" lon="0.68196">
        <ele>171.25</ele>
        <time>2012-12-29T09:07:33Z</time>
      </trkpt>
      <trkpt lat="44.20322" lon="0.68196">
        <ele>167.89</ele>
        <time>2012-12-29T09:07:39Z</time>
      </trkpt>
      <trkpt lat="44.20315" lon="0.68197">
        <ele>167.89</ele>
        <time>2012-12-29T09:07:40Z</time>
      </trkpt>
      <trkpt lat="44.2027" lon="0.68205">
        <ele>167.89</ele>
        <time>2012-12-29T09:07:47Z</time>
      </trkpt>
      <trkpt lat="44.20242" lon="0.68195">
        <ele>168.37</ele>
        <time>2012-12-29T09:07:52Z</time>
      </trkpt>
      <trkpt lat="44.20204" lon="0.68176">
        <ele>170.77</ele>
        <time>2012-12-29T09:08:01Z</time>
      </trkpt>
      <trkpt lat="44.20177" lon="0.68167">
        <ele>172.21</ele>
        <time>2012-12-29T09:08:09Z</time>
      </trkpt>
      <trkpt lat="44.20173" lon="0.68152">
        <ele>173.17</ele>
        <time>2012-12-29T09:08:13Z</time>
      </trkpt>
      <trkpt lat="44.20177" lon="0.68116">
        <ele>170.77</ele>
        <time>2012-12-29T09:08:18Z</time>
      </trkpt>
      <trkpt lat="44.20178" lon="0.68108">
        <ele>169.81</ele>
        <time>2012-12-29T09:08:19Z</time>
      </trkpt>
      <trkpt lat="44.2018" lon="0.6809">
        <ele>169.81</ele>
        <time>2012-12-29T09:08:21Z</time>
      </trkpt>
      <trkpt lat="44.20189" lon="0.68042">
        <ele>168.37</ele>
        <time>2012-12-29T09:08:26Z</time>
      </trkpt>
      <trkpt lat="44.20193" lon="0.68012">
        <ele>167.89</ele>
        <time>2012-12-29T09:08:29Z</time>
      </trkpt>
      <trkpt lat="44.20181" lon="0.67985">
        <ele>165.96</ele>
        <time>2012-12-29T09:08:33Z</time>
      </trkpt>
      <trkpt lat="44.20169" lon="0.67981">
        <ele>165.48</ele>
        <time>2012-12-29T09:08:35Z</time>
      </trkpt>
      <trkpt lat="44.20144" lon="0.67973">
        <ele>165</ele>
        <time>2012-12-29T09:08:41Z</time>
      </trkpt>
      <trkpt lat="44.20098" lon="0.67962">
        <ele>161.64</ele>
        <time>2012-12-29T09:08:49Z</time>
      </trkpt>
      <trkpt lat="44.20075" lon="0.67955">
        <ele>158.75</ele>
        <time>2012-12-29T09:08:52Z</time>
      </trkpt>
      <trkpt lat="44.20045" lon="0.67945">
        <ele>155.87</ele>
        <time>2012-12-29T09:08:56Z</time>
      </trkpt>
      <trkpt lat="44.20023" lon="0.67931">
        <ele>154.91</ele>
        <time>2012-12-29T09:09:03Z</time>
      </trkpt>
      <trkpt lat="44.20008" lon="0.67835">
        <ele>151.54</ele>
        <time>2012-12-29T09:09:15Z</time>
      </trkpt>
      <trkpt lat="44.2003" lon="0.67738">
        <ele>150.58</ele>
        <time>2012-12-29T09:09:26Z</time>
      </trkpt>
      <trkpt lat="44.20049" lon="0.6767">
        <ele>151.06</ele>
        <time>2012-12-29T09:09:34Z</time>
      </trkpt>
      <trkpt lat="44.20059" lon="0.67635">
        <ele>152.03</ele>
        <time>2012-12-29T09:09:39Z</time>
      </trkpt>
      <trkpt lat="44.20051" lon="0.67605">
        <ele>151.06</ele>
        <time>2012-12-29T09:09:47Z</time>
      </trkpt>
      <trkpt lat="44.2004" lon="0.67603">
        <ele>149.62</ele>
        <time>2012-12-29T09:09:49Z</time>
      </trkpt>
      <trkpt lat="44.20024" lon="0.67603">
        <ele>148.66</ele>
        <time>2012-12-29T09:09:52Z</time>
      </trkpt>
      <trkpt lat="44.19991" lon="0.67588">
        <ele>145.78</ele>
        <time>2012-12-29T09:09:57Z</time>
      </trkpt>
      <trkpt lat="44.19979" lon="0.67576">
        <ele>145.78</ele>
        <time>2012-12-29T09:09:59Z</time>
      </trkpt>
      <trkpt lat="44.19943" lon="0.67557">
        <ele>143.85</ele>
        <time>2012-12-29T09:10:04Z</time>
      </trkpt>
      <trkpt lat="44.19916" lon="0.67535">
        <ele>143.37</ele>
        <time>2012-12-29T09:10:08Z</time>
      </trkpt>
      <trkpt lat="44.19858" lon="0.67473">
        <ele>141.93</ele>
        <time>2012-12-29T09:10:18Z</time>
      </trkpt>
      <trkpt lat="44.19792" lon="0.67455">
        <ele>142.89</ele>
        <time>2012-12-29T09:10:29Z</time>
      </trkpt>
      <trkpt lat="44.19764" lon="0.67466">
        <ele>142.41</ele>
        <time>2012-12-29T09:10:35Z</time>
      </trkpt>
      <trkpt lat="44.19736" lon="0.67493">
        <ele>142.89</ele>
        <time>2012-12-29T09:10:43Z</time>
      </trkpt>
      <trkpt lat="44.19685" lon="0.67545">
        <ele>143.37</ele>
        <time>2012-12-29T09:10:58Z</time>
      </trkpt>
      <trkpt lat="44.19676" lon="0.6755">
        <ele>142.89</ele>
        <time>2012-12-29T09:11:00Z</time>
      </trkpt>
      <trkpt lat="44.19662" lon="0.67555">
        <ele>142.41</ele>
        <time>2012-12-29T09:11:03Z</time>
      </trkpt>
      <trkpt lat="44.19625" lon="0.67542">
        <ele>138.57</ele>
        <time>2012-12-29T09:11:09Z</time>
      </trkpt>
      <trkpt lat="44.19613" lon="0.67531">
        <ele>137.61</ele>
        <time>2012-12-29T09:11:11Z</time>
      </trkpt>
      <trkpt lat="44.19592" lon="0.67519">
        <ele>136.16</ele>
        <time>2012-12-29T09:11:14Z</time>
      </trkpt>
      <trkpt lat="44.19575" lon="0.67518">
        <ele>134.24</ele>
        <time>2012-12-29T09:11:16Z</time>
      </trkpt>
      <trkpt lat="44.19548" lon="0.67524">
        <ele>131.36</ele>
        <time>2012-12-29T09:11:19Z</time>
      </trkpt>
      <trkpt lat="44.19529" lon="0.67526">
        <ele>130.4</ele>
        <time>2012-12-29T09:11:21Z</time>
      </trkpt>
      <trkpt lat="44.19511" lon="0.67521">
        <ele>130.4</ele>
        <time>2012-12-29T09:11:23Z</time>
      </trkpt>
      <trkpt lat="44.19442" lon="0.67512">
        <ele>128.47</ele>
        <time>2012-12-29T09:11:31Z</time>
      </trkpt>
      <trkpt lat="44.19399" lon="0.67552">
        <ele>127.03</ele>
        <time>2012-12-29T09:11:38Z</time>
      </trkpt>
      <trkpt lat="44.19394" lon="0.67578">
        <ele>127.51</ele>
        <time>2012-12-29T09:11:41Z</time>
      </trkpt>
      <trkpt lat="44.19393" lon="0.67591">
        <ele>127.51</ele>
        <time>2012-12-29T09:11:43Z</time>
      </trkpt>
      <trkpt lat="44.19392" lon="0.6761">
        <ele>127.51</ele>
        <time>2012-12-29T09:11:47Z</time>
      </trkpt>
      <trkpt lat="44.19386" lon="0.67608">
        <ele>128.95</ele>
        <time>2012-12-29T09:11:55Z</time>
      </trkpt>
      <trkpt lat="44.19386" lon="0.67605">
        <ele>129.43</ele>
        <time>2012-12-29T09:11:57Z</time>
      </trkpt>
      <trkpt lat="44.19386" lon="0.67596">
        <ele>130.88</ele>
        <time>2012-12-29T09:12:03Z</time>
      </trkpt>
      <trkpt lat="44.19386" lon="0.67586">
        <ele>132.32</ele>
        <time>2012-12-29T09:12:08Z</time>
      </trkpt>
      <trkpt lat="44.19388" lon="0.67576">
        <ele>133.76</ele>
        <time>2012-12-29T09:12:13Z</time>
      </trkpt>
      <trkpt lat="44.19386" lon="0.67557">
        <ele>136.16</ele>
        <time>2012-12-29T09:12:21Z</time>
      </trkpt>
      <trkpt lat="44.19391" lon="0.67531">
        <ele>139.53</ele>
        <time>2012-12-29T09:12:31Z</time>
      </trkpt>
      <trkpt lat="44.194" lon="0.67504">
        <ele>142.89</ele>
        <time>2012-12-29T09:12:42Z</time>
      </trkpt>
      <trkpt lat="44.19405" lon="0.67495">
        <ele>143.85</ele>
        <time>2012-12-29T09:12:46Z</time>
      </trkpt>
      <trkpt lat="44.19406" lon="0.67459">
        <ele>146.74</ele>
        <time>2012-12-29T09:12:59Z</time>
      </trkpt>
      <trkpt lat="44.19411" lon="0.6742">
        <ele>147.7</ele>
        <time>2012-12-29T09:13:11Z</time>
      </trkpt>
      <trkpt lat="44.19414" lon="0.67407">
        <ele>148.18</ele>
        <time>2012-12-29T09:13:15Z</time>
      </trkpt>
      <trkpt lat="44.19417" lon="0.67386">
        <ele>148.18</ele>
        <time>2012-12-29T09:13:21Z</time>
      </trkpt>
      <trkpt lat="44.19421" lon="0.67368">
        <ele>147.7</ele>
        <time>2012-12-29T09:13:26Z</time>
      </trkpt>
      <trkpt lat="44.19435" lon="0.67302">
        <ele>146.26</ele>
        <time>2012-12-29T09:13:41Z</time>
      </trkpt>
      <trkpt lat="44.19417" lon="0.67268">
        <ele>147.22</ele>
        <time>2012-12-29T09:13:52Z</time>
      </trkpt>
      <trkpt lat="44.19395" lon="0.67239">
        <ele>148.66</ele>
        <time>2012-12-29T09:14:03Z</time>
      </trkpt>
      <trkpt lat="44.19369" lon="0.67205">
        <ele>149.14</ele>
        <time>2012-12-29T09:14:15Z</time>
      </trkpt>
      <trkpt lat="44.19352" lon="0.67176">
        <ele>148.66</ele>
        <time>2012-12-29T09:14:23Z</time>
      </trkpt>
      <trkpt lat="44.19308" lon="0.67123">
        <ele>147.7</ele>
        <time>2012-12-29T09:14:35Z</time>
      </trkpt>
      <trkpt lat="44.19264" lon="0.67078">
        <ele>149.62</ele>
        <time>2012-12-29T09:14:49Z</time>
      </trkpt>
      <trkpt lat="44.19259" lon="0.67066">
        <ele>151.06</ele>
        <time>2012-12-29T09:14:52Z</time>
      </trkpt>
      <trkpt lat="44.19259" lon="0.67005">
        <ele>150.58</ele>
        <time>2012-12-29T09:15:04Z</time>
      </trkpt>
      <trkpt lat="44.19259" lon="0.66999">
        <ele>150.1</ele>
        <time>2012-12-29T09:15:05Z</time>
      </trkpt>
      <trkpt lat="44.19263" lon="0.66939">
        <ele>149.62</ele>
        <time>2012-12-29T09:15:14Z</time>
      </trkpt>
      <trkpt lat="44.19253" lon="0.66847">
        <ele>150.58</ele>
        <time>2012-12-29T09:15:27Z</time>
      </trkpt>
      <trkpt lat="44.19247" lon="0.66801">
        <ele>149.62</ele>
        <time>2012-12-29T09:15:33Z</time>
      </trkpt>
      <trkpt lat="44.19236" lon="0.66692">
        <ele>150.1</ele>
        <time>2012-12-29T09:15:47Z</time>
      </trkpt>
      <trkpt lat="44.19235" lon="0.6667">
        <ele>149.62</ele>
        <time>2012-12-29T09:15:52Z</time>
      </trkpt>
      <trkpt lat="44.19219" lon="0.6667">
        <ele>149.62</ele>
        <time>2012-12-29T09:16:00Z</time>
      </trkpt>
      <trkpt lat="44.1921" lon="0.66666">
        <ele>149.62</ele>
        <time>2012-12-29T09:16:04Z</time>
      </trkpt>
      <trkpt lat="44.19152" lon="0.66655">
        <ele>151.54</ele>
        <time>2012-12-29T09:16:24Z</time>
      </trkpt>
      <trkpt lat="44.1911" lon="0.66663">
        <ele>151.06</ele>
        <time>2012-12-29T09:16:39Z</time>
      </trkpt>
      <trkpt lat="44.19071" lon="0.66687">
        <ele>149.62</ele>
        <time>2012-12-29T09:16:54Z</time>
      </trkpt>
      <trkpt lat="44.1907" lon="0.66688">
        <ele>149.62</ele>
        <time>2012-12-29T09:16:55Z</time>
      </trkpt>
      <trkpt lat="44.19063" lon="0.66702">
        <ele>149.14</ele>
        <time>2012-12-29T09:17:08Z</time>
      </trkpt>
      <trkpt lat="44.19064" lon="0.66703">
        <ele>149.62</ele>
        <time>2012-12-29T09:17:31Z</time>
      </trkpt>
      <trkpt lat="44.19063" lon="0.66703">
        <ele>149.14</ele>
        <time>2012-12-29T09:17:47Z</time>
      </trkpt>
      <trkpt lat="44.19063" lon="0.66702">
        <ele>149.62</ele>
        <time>2012-12-29T09:18:20Z</time>
      </trkpt>
      <trkpt lat="44.19063" lon="0.66703">
        <ele>149.14</ele>
        <time>2012-12-29T09:18:44Z</time>
      </trkpt>
      <trkpt lat="44.19063" lon="0.66704">
        <ele>149.62</ele>
        <time>2012-12-29T09:19:12Z</time>
      </trkpt>
      <trkpt lat="44.19063" lon="0.66705">
        <ele>149.62</ele>
        <time>2012-12-29T09:19:53Z</time>
      </trkpt>
      <trkpt lat="44.19064" lon="0.66706">
        <ele>149.62</ele>
        <time>2012-12-29T09:20:34Z</time>
      </trkpt>
      <trkpt lat="44.19064" lon="0.66706">
        <ele>149.14</ele>
        <time>2012-12-29T09:21:13Z</time>
      </trkpt>
      <trkpt lat="44.19065" lon="0.66705">
        <ele>149.62</ele>
        <time>2012-12-29T09:21:58Z</time>
      </trkpt>
      <trkpt lat="44.19065" lon="0.66704">
        <ele>149.14</ele>
        <time>2012-12-29T09:22:14Z</time>
      </trkpt>
      <trkpt lat="44.19066" lon="0.66706">
        <ele>149.62</ele>
        <time>2012-12-29T09:22:17Z</time>
      </trkpt>
      <trkpt lat="44.1907" lon="0.66715">
        <ele>149.14</ele>
        <time>2012-12-29T09:22:22Z</time>
      </trkpt>
      <trkpt lat="44.1908" lon="0.66776">
        <ele>149.14</ele>
        <time>2012-12-29T09:22:38Z</time>
      </trkpt>
      <trkpt lat="44.19086" lon="0.66828">
        <ele>148.18</ele>
        <time>2012-12-29T09:22:50Z</time>
      </trkpt>
      <trkpt lat="44.1911" lon="0.66854">
        <ele>148.18</ele>
        <time>2012-12-29T09:23:00Z</time>
      </trkpt>
      <trkpt lat="44.19121" lon="0.66879">
        <ele>147.22</ele>
        <time>2012-12-29T09:23:11Z</time>
      </trkpt>
      <trkpt lat="44.19122" lon="0.66884">
        <ele>147.22</ele>
        <time>2012-12-29T09:23:17Z</time>
      </trkpt>
      <trkpt lat="44.19125" lon="0.66901">
        <ele>147.22</ele>
        <time>2012-12-29T09:23:22Z</time>
      </trkpt>
      <trkpt lat="44.19128" lon="0.66913">
        <ele>145.78</ele>
        <time>2012-12-29T09:23:27Z</time>
      </trkpt>
      <trkpt lat="44.19118" lon="0.66905">
        <ele>141.93</ele>
        <time>2012-12-29T09:23:34Z</time>
      </trkpt>
      <trkpt lat="44.19115" lon="0.66897">
        <ele>140.49</ele>
        <time>2012-12-29T09:23:36Z</time>
      </trkpt>
      <trkpt lat="44.19112" lon="0.6689">
        <ele>139.53</ele>
        <time>2012-12-29T09:23:40Z</time>
      </trkpt>
      <trkpt lat="44.19104" lon="0.66878">
        <ele>138.57</ele>
        <time>2012-12-29T09:23:44Z</time>
      </trkpt>
      <trkpt lat="44.19094" lon="0.66868">
        <ele>138.09</ele>
        <time>2012-12-29T09:23:54Z</time>
      </trkpt>
      <trkpt lat="44.19085" lon="0.66871">
        <ele>137.13</ele>
        <time>2012-12-29T09:23:59Z</time>
      </trkpt>
      <trkpt lat="44.19079" lon="0.66875">
        <ele>136.16</ele>
        <time>2012-12-29T09:24:02Z</time>
      </trkpt>
      <trkpt lat="44.19073" lon="0.66876">
        <ele>135.68</ele>
        <time>2012-12-29T09:24:04Z</time>
      </trkpt>
      <trkpt lat="44.1906" lon="0.66871">
        <ele>134.72</ele>
        <time>2012-12-29T09:24:16Z</time>
      </trkpt>
      <trkpt lat="44.19063" lon="0.66872">
        <ele>136.16</ele>
        <time>2012-12-29T09:24:30Z</time>
      </trkpt>
      <trkpt lat="44.19063" lon="0.66872">
        <ele>136.16</ele>
        <time>2012-12-29T09:24:33Z</time>
      </trkpt>
      <trkpt lat="44.19082" lon="0.66871">
        <ele>137.13</ele>
        <time>2012-12-29T09:24:45Z</time>
      </trkpt>
      <trkpt lat="44.19085" lon="0.66868">
        <ele>137.61</ele>
        <time>2012-12-29T09:24:47Z</time>
      </trkpt>
      <trkpt lat="44.191" lon="0.66878">
        <ele>138.09</ele>
        <time>2012-12-29T09:24:57Z</time>
      </trkpt>
      <trkpt lat="44.19105" lon="0.66886">
        <ele>138.57</ele>
        <time>2012-12-29T09:25:00Z</time>
      </trkpt>
      <trkpt lat="44.19109" lon="0.66909">
        <ele>135.68</ele>
        <time>2012-12-29T09:25:06Z</time>
      </trkpt>
      <trkpt lat="44.19107" lon="0.66912">
        <ele>134.72</ele>
        <time>2012-12-29T09:25:07Z</time>
      </trkpt>
      <trkpt lat="44.19102" lon="0.66915">
        <ele>132.32</ele>
        <time>2012-12-29T09:25:09Z</time>
      </trkpt>
      <trkpt lat="44.19093" lon="0.66933">
        <ele>126.55</ele>
        <time>2012-12-29T09:25:13Z</time>
      </trkpt>
      <trkpt lat="44.19092" lon="0.6694">
        <ele>125.11</ele>
        <time>2012-12-29T09:25:14Z</time>
      </trkpt>
      <trkpt lat="44.19078" lon="0.66966">
        <ele>118.38</ele>
        <time>2012-12-29T09:25:19Z</time>
      </trkpt>
      <trkpt lat="44.19073" lon="0.66983">
        <ele>115.5</ele>
        <time>2012-12-29T09:25:22Z</time>
      </trkpt>
      <trkpt lat="44.19059" lon="0.66984">
        <ele>112.13</ele>
        <time>2012-12-29T09:25:25Z</time>
      </trkpt>
      <trkpt lat="44.19047" lon="0.66982">
        <ele>108.29</ele>
        <time>2012-12-29T09:25:28Z</time>
      </trkpt>
      <trkpt lat="44.19039" lon="0.66989">
        <ele>105.4</ele>
        <time>2012-12-29T09:25:31Z</time>
      </trkpt>
      <trkpt lat="44.1903" lon="0.66992">
        <ele>103</ele>
        <time>2012-12-29T09:25:33Z</time>
      </trkpt>
      <trkpt lat="44.19013" lon="0.67003">
        <ele>99.15</ele>
        <time>2012-12-29T09:25:38Z</time>
      </trkpt>
      <trkpt lat="44.19003" lon="0.67013">
        <ele>96.75</ele>
        <time>2012-12-29T09:25:40Z</time>
      </trkpt>
      <trkpt lat="44.1898" lon="0.67041">
        <ele>90.98</ele>
        <time>2012-12-29T09:25:44Z</time>
      </trkpt>
      <trkpt lat="44.18956" lon="0.67043">
        <ele>85.69</ele>
        <time>2012-12-29T09:25:47Z</time>
      </trkpt>
      <trkpt lat="44.18926" lon="0.67034">
        <ele>81.85</ele>
        <time>2012-12-29T09:25:50Z</time>
      </trkpt>
      <trkpt lat="44.18893" lon="0.67023">
        <ele>77.04</ele>
        <time>2012-12-29T09:25:53Z</time>
      </trkpt>
      <trkpt lat="44.1886" lon="0.67003">
        <ele>73.2</ele>
        <time>2012-12-29T09:25:56Z</time>
      </trkpt>
      <trkpt lat="44.18837" lon="0.66987">
        <ele>68.87</ele>
        <time>2012-12-29T09:25:58Z</time>
      </trkpt>
      <trkpt lat="44.18803" lon="0.66966">
        <ele>65.51</ele>
        <time>2012-12-29T09:26:01Z</time>
      </trkpt>
      <trkpt lat="44.18748" lon="0.66938">
        <ele>63.1</ele>
        <time>2012-12-29T09:26:07Z</time>
      </trkpt>
      <trkpt lat="44.18699" lon="0.66918">
        <ele>59.74</ele>
        <time>2012-12-29T09:26:13Z</time>
      </trkpt>
      <trkpt lat="44.18677" lon="0.6691">
        <ele>58.78</ele>
        <time>2012-12-29T09:26:16Z</time>
      </trkpt>
      <trkpt lat="44.18664" lon="0.6687">
        <ele>58.78</ele>
        <time>2012-12-29T09:26:22Z</time>
      </trkpt>
      <trkpt lat="44.1866" lon="0.6685">
        <ele>57.82</ele>
        <time>2012-12-29T09:26:25Z</time>
      </trkpt>
      <trkpt lat="44.1866" lon="0.66835">
        <ele>58.3</ele>
        <time>2012-12-29T09:26:27Z</time>
      </trkpt>
      <trkpt lat="44.18662" lon="0.6682">
        <ele>57.82</ele>
        <time>2012-12-29T09:26:29Z</time>
      </trkpt>
      <trkpt lat="44.18637" lon="0.66767">
        <ele>55.41</ele>
        <time>2012-12-29T09:26:38Z</time>
      </trkpt>
      <trkpt lat="44.18627" lon="0.66762">
        <ele>54.93</ele>
        <time>2012-12-29T09:26:40Z</time>
      </trkpt>
      <trkpt lat="44.18555" lon="0.66713">
        <ele>54.45</ele>
        <time>2012-12-29T09:26:55Z</time>
      </trkpt>
      <trkpt lat="44.18452" lon="0.66649">
        <ele>53.01</ele>
        <time>2012-12-29T09:27:15Z</time>
      </trkpt>
      <trkpt lat="44.18439" lon="0.66641">
        <ele>53.01</ele>
        <time>2012-12-29T09:27:17Z</time>
      </trkpt>
      <trkpt lat="44.1842" lon="0.66631">
        <ele>53.49</ele>
        <time>2012-12-29T09:27:21Z</time>
      </trkpt>
      <trkpt lat="44.18345" lon="0.66588">
        <ele>52.05</ele>
        <time>2012-12-29T09:27:36Z</time>
      </trkpt>
      <trkpt lat="44.18261" lon="0.66539">
        <ele>52.05</ele>
        <time>2012-12-29T09:27:53Z</time>
      </trkpt>
      <trkpt lat="44.18185" lon="0.66495">
        <ele>51.57</ele>
        <time>2012-12-29T09:28:09Z</time>
      </trkpt>
      <trkpt lat="44.18113" lon="0.66452">
        <ele>50.61</ele>
        <time>2012-12-29T09:28:24Z</time>
      </trkpt>
      <trkpt lat="44.18108" lon="0.6645">
        <ele>51.57</ele>
        <time>2012-12-29T09:28:25Z</time>
      </trkpt>
      <trkpt lat="44.18022" lon="0.66398">
        <ele>50.61</ele>
        <time>2012-12-29T09:28:43Z</time>
      </trkpt>
      <trkpt lat="44.18007" lon="0.66393">
        <ele>50.13</ele>
        <time>2012-12-29T09:28:46Z</time>
      </trkpt>
      <trkpt lat="44.17969" lon="0.66392">
        <ele>49.16</ele>
        <time>2012-12-29T09:28:53Z</time>
      </trkpt>
      <trkpt lat="44.17937" lon="0.66368">
        <ele>49.16</ele>
        <time>2012-12-29T09:29:00Z</time>
      </trkpt>
      <trkpt lat="44.17887" lon="0.66263">
        <ele>52.53</ele>
        <time>2012-12-29T09:29:16Z</time>
      </trkpt>
      <trkpt lat="44.17874" lon="0.66236">
        <ele>52.53</ele>
        <time>2012-12-29T09:29:20Z</time>
      </trkpt>
      <trkpt lat="44.17854" lon="0.66228">
        <ele>51.57</ele>
        <time>2012-12-29T09:29:24Z</time>
      </trkpt>
      <trkpt lat="44.17826" lon="0.66232">
        <ele>49.16</ele>
        <time>2012-12-29T09:29:29Z</time>
      </trkpt>
      <trkpt lat="44.17816" lon="0.66218">
        <ele>47.72</ele>
        <time>2012-12-29T09:29:31Z</time>
      </trkpt>
      <trkpt lat="44.17765" lon="0.66092">
        <ele>46.76</ele>
        <time>2012-12-29T09:29:47Z</time>
      </trkpt>
      <trkpt lat="44.17748" lon="0.66073">
        <ele>45.8</ele>
        <time>2012-12-29T09:29:51Z</time>
      </trkpt>
      <trkpt lat="44.17731" lon="0.6603">
        <ele>46.28</ele>
        <time>2012-12-29T09:29:59Z</time>
      </trkpt>
      <trkpt lat="44.17734" lon="0.65993">
        <ele>46.76</ele>
        <time>2012-12-29T09:30:07Z</time>
      </trkpt>
      <trkpt lat="44.1774" lon="0.65977">
        <ele>46.28</ele>
        <time>2012-12-29T09:30:12Z</time>
      </trkpt>
      <trkpt lat="44.17725" lon="0.65932">
        <ele>45.32</ele>
        <time>2012-12-29T09:30:20Z</time>
      </trkpt>
      <trkpt lat="44.17674" lon="0.65848">
        <ele>44.84</ele>
        <time>2012-12-29T09:30:37Z</time>
      </trkpt>
      <trkpt lat="44.17622" lon="0.65772">
        <ele>46.76</ele>
        <time>2012-12-29T09:30:53Z</time>
      </trkpt>
      <trkpt lat="44.17572" lon="0.65706">
        <ele>43.88</ele>
        <time>2012-12-29T09:31:06Z</time>
      </trkpt>
      <trkpt lat="44.17555" lon="0.65689">
        <ele>44.36</ele>
        <time>2012-12-29T09:31:10Z</time>
      </trkpt>
      <trkpt lat="44.17548" lon="0.65667">
        <ele>44.84</ele>
        <time>2012-12-29T09:31:14Z</time>
      </trkpt>
      <trkpt lat="44.17527" lon="0.65646">
        <ele>44.84</ele>
        <time>2012-12-29T09:31:20Z</time>
      </trkpt>
      <trkpt lat="44.17511" lon="0.65644">
        <ele>44.84</ele>
        <time>2012-12-29T09:31:24Z</time>
      </trkpt>
      <trkpt lat="44.17503" lon="0.6562">
        <ele>45.8</ele>
        <time>2012-12-29T09:31:30Z</time>
      </trkpt>
      <trkpt lat="44.17509" lon="0.65594">
        <ele>46.28</ele>
        <time>2012-12-29T09:31:35Z</time>
      </trkpt>
      <trkpt lat="44.17475" lon="0.65576">
        <ele>45.32</ele>
        <time>2012-12-29T09:31:45Z</time>
      </trkpt>
      <trkpt lat="44.17468" lon="0.65556">
        <ele>45.8</ele>
        <time>2012-12-29T09:31:49Z</time>
      </trkpt>
      <trkpt lat="44.17484" lon="0.65505">
        <ele>45.8</ele>
        <time>2012-12-29T09:31:57Z</time>
      </trkpt>
      <trkpt lat="44.17527" lon="0.654">
        <ele>44.36</ele>
        <time>2012-12-29T09:32:12Z</time>
      </trkpt>
      <trkpt lat="44.17583" lon="0.65244">
        <ele>44.84</ele>
        <time>2012-12-29T09:32:32Z</time>
      </trkpt>
      <trkpt lat="44.176" lon="0.65105">
        <ele>45.32</ele>
        <time>2012-12-29T09:32:48Z</time>
      </trkpt>
      <trkpt lat="44.17606" lon="0.65061">
        <ele>45.32</ele>
        <time>2012-12-29T09:32:53Z</time>
      </trkpt>
      <trkpt lat="44.17598" lon="0.64966">
        <ele>45.32</ele>
        <time>2012-12-29T09:33:04Z</time>
      </trkpt>
      <trkpt lat="44.17578" lon="0.64811">
        <ele>45.32</ele>
        <time>2012-12-29T09:33:22Z</time>
      </trkpt>
      <trkpt lat="44.17557" lon="0.64653">
        <ele>45.32</ele>
        <time>2012-12-29T09:33:40Z</time>
      </trkpt>
      <trkpt lat="44.17532" lon="0.6452">
        <ele>45.8</ele>
        <time>2012-12-29T09:33:56Z</time>
      </trkpt>
      <trkpt lat="44.17513" lon="0.64375">
        <ele>45.8</ele>
        <time>2012-12-29T09:34:14Z</time>
      </trkpt>
      <trkpt lat="44.1749" lon="0.642">
        <ele>45.8</ele>
        <time>2012-12-29T09:34:36Z</time>
      </trkpt>
      <trkpt lat="44.17471" lon="0.64053">
        <ele>44.36</ele>
        <time>2012-12-29T09:34:54Z</time>
      </trkpt>
      <trkpt lat="44.17453" lon="0.63912">
        <ele>45.32</ele>
        <time>2012-12-29T09:35:12Z</time>
      </trkpt>
      <trkpt lat="44.17436" lon="0.63789">
        <ele>44.84</ele>
        <time>2012-12-29T09:35:28Z</time>
      </trkpt>
      <trkpt lat="44.17426" lon="0.6372">
        <ele>45.32</ele>
        <time>2012-12-29T09:35:37Z</time>
      </trkpt>
      <trkpt lat="44.17433" lon="0.63638">
        <ele>46.28</ele>
        <time>2012-12-29T09:35:50Z</time>
      </trkpt>
      <trkpt lat="44.17421" lon="0.63602">
        <ele>46.76</ele>
        <time>2012-12-29T09:36:00Z</time>
      </trkpt>
      <trkpt lat="44.17418" lon="0.63598">
        <ele>46.28</ele>
        <time>2012-12-29T09:36:01Z</time>
      </trkpt>
      <trkpt lat="44.17411" lon="0.63567">
        <ele>45.32</ele>
        <time>2012-12-29T09:36:06Z</time>
      </trkpt>
      <trkpt lat="44.17406" lon="0.63441">
        <ele>44.84</ele>
        <time>2012-12-29T09:36:21Z</time>
      </trkpt>
      <trkpt lat="44.17387" lon="0.63252">
        <ele>45.32</ele>
        <time>2012-12-29T09:36:43Z</time>
      </trkpt>
      <trkpt lat="44.17373" lon="0.63114">
        <ele>45.8</ele>
        <time>2012-12-29T09:36:59Z</time>
      </trkpt>
      <trkpt lat="44.17395" lon="0.62989">
        <ele>45.32</ele>
        <time>2012-12-29T09:37:13Z</time>
      </trkpt>
      <trkpt lat="44.17454" lon="0.62858">
        <ele>44.84</ele>
        <time>2012-12-29T09:37:29Z</time>
      </trkpt>
      <trkpt lat="44.17508" lon="0.62765">
        <ele>46.28</ele>
        <time>2012-12-29T09:37:42Z</time>
      </trkpt>
      <trkpt lat="44.17521" lon="0.62755">
        <ele>46.76</ele>
        <time>2012-12-29T09:37:45Z</time>
      </trkpt>
      <trkpt lat="44.17524" lon="0.62747">
        <ele>47.24</ele>
        <time>2012-12-29T09:37:53Z</time>
      </trkpt>
      <trkpt lat="44.17524" lon="0.62747">
        <ele>47.72</ele>
        <time>2012-12-29T09:37:55Z</time>
      </trkpt>
      <trkpt lat="44.17536" lon="0.62716">
        <ele>47.24</ele>
        <time>2012-12-29T09:38:05Z</time>
      </trkpt>
      <trkpt lat="44.17535" lon="0.62687">
        <ele>47.24</ele>
        <time>2012-12-29T09:38:10Z</time>
      </trkpt>
      <trkpt lat="44.1757" lon="0.62572">
        <ele>44.84</ele>
        <time>2012-12-29T09:38:24Z</time>
      </trkpt>
      <trkpt lat="44.17598" lon="0.62414">
        <ele>44.36</ele>
        <time>2012-12-29T09:38:41Z</time>
      </trkpt>
      <trkpt lat="44.1759" lon="0.62281">
        <ele>45.32</ele>
        <time>2012-12-29T09:38:55Z</time>
      </trkpt>
      <trkpt lat="44.17586" lon="0.62254">
        <ele>45.8</ele>
        <time>2012-12-29T09:38:58Z</time>
      </trkpt>
      <trkpt lat="44.17597" lon="0.62168">
        <ele>44.36</ele>
        <time>2012-12-29T09:39:07Z</time>
      </trkpt>
      <trkpt lat="44.17592" lon="0.62126">
        <ele>43.88</ele>
        <time>2012-12-29T09:39:11Z</time>
      </trkpt>
      <trkpt lat="44.17554" lon="0.62012">
        <ele>42.92</ele>
        <time>2012-12-29T09:39:24Z</time>
      </trkpt>
      <trkpt lat="44.17535" lon="0.61911">
        <ele>43.4</ele>
        <time>2012-12-29T09:39:35Z</time>
      </trkpt>
      <trkpt lat="44.17557" lon="0.61856">
        <ele>42.92</ele>
        <time>2012-12-29T09:39:43Z</time>
      </trkpt>
      <trkpt lat="44.17564" lon="0.61854">
        <ele>43.4</ele>
        <time>2012-12-29T09:39:44Z</time>
      </trkpt>
      <trkpt lat="44.17582" lon="0.61849">
        <ele>43.88</ele>
        <time>2012-12-29T09:39:47Z</time>
      </trkpt>
      <trkpt lat="44.17596" lon="0.61811">
        <ele>42.92</ele>
        <time>2012-12-29T09:39:53Z</time>
      </trkpt>
      <trkpt lat="44.1759" lon="0.61785">
        <ele>42.92</ele>
        <time>2012-12-29T09:39:56Z</time>
      </trkpt>
      <trkpt lat="44.17601" lon="0.61743">
        <ele>42.92</ele>
        <time>2012-12-29T09:40:02Z</time>
      </trkpt>
      <trkpt lat="44.177" lon="0.61683">
        <ele>42.92</ele>
        <time>2012-12-29T09:40:19Z</time>
      </trkpt>
      <trkpt lat="44.17763" lon="0.6165">
        <ele>42.92</ele>
        <time>2012-12-29T09:40:31Z</time>
      </trkpt>
      <trkpt lat="44.178" lon="0.61635">
        <ele>40.99</ele>
        <time>2012-12-29T09:40:38Z</time>
      </trkpt>
      <trkpt lat="44.17798" lon="0.6162">
        <ele>41.95</ele>
        <time>2012-12-29T09:40:40Z</time>
      </trkpt>
      <trkpt lat="44.17771" lon="0.61597">
        <ele>41.95</ele>
        <time>2012-12-29T09:40:48Z</time>
      </trkpt>
      <trkpt lat="44.17761" lon="0.61594">
        <ele>42.92</ele>
        <time>2012-12-29T09:40:52Z</time>
      </trkpt>
      <trkpt lat="44.17753" lon="0.61573">
        <ele>43.88</ele>
        <time>2012-12-29T09:40:59Z</time>
      </trkpt>
      <trkpt lat="44.17784" lon="0.61564">
        <ele>42.92</ele>
        <time>2012-12-29T09:41:09Z</time>
      </trkpt>
      <trkpt lat="44.17836" lon="0.61554">
        <ele>42.44</ele>
        <time>2012-12-29T09:41:20Z</time>
      </trkpt>
      <trkpt lat="44.17907" lon="0.61535">
        <ele>41.95</ele>
        <time>2012-12-29T09:41:35Z</time>
      </trkpt>
      <trkpt lat="44.17988" lon="0.61512">
        <ele>42.44</ele>
        <time>2012-12-29T09:41:52Z</time>
      </trkpt>
      <trkpt lat="44.18081" lon="0.61478">
        <ele>40.51</ele>
        <time>2012-12-29T09:42:09Z</time>
      </trkpt>
      <trkpt lat="44.18183" lon="0.6144">
        <ele>40.51</ele>
        <time>2012-12-29T09:42:27Z</time>
      </trkpt>
      <trkpt lat="44.18285" lon="0.6141">
        <ele>40.03</ele>
        <time>2012-12-29T09:42:45Z</time>
      </trkpt>
      <trkpt lat="44.18402" lon="0.61383">
        <ele>40.51</ele>
        <time>2012-12-29T09:43:05Z</time>
      </trkpt>
      <trkpt lat="44.18527" lon="0.61355">
        <ele>40.03</ele>
        <time>2012-12-29T09:43:26Z</time>
      </trkpt>
      <trkpt lat="44.1863" lon="0.61333">
        <ele>39.07</ele>
        <time>2012-12-29T09:43:44Z</time>
      </trkpt>
      <trkpt lat="44.1872" lon="0.61309">
        <ele>39.55</ele>
        <time>2012-12-29T09:44:00Z</time>
      </trkpt>
      <trkpt lat="44.18797" lon="0.61306">
        <ele>40.51</ele>
        <time>2012-12-29T09:44:15Z</time>
      </trkpt>
      <trkpt lat="44.18892" lon="0.61286">
        <ele>40.51</ele>
        <time>2012-12-29T09:44:34Z</time>
      </trkpt>
      <trkpt lat="44.18931" lon="0.61274">
        <ele>40.99</ele>
        <time>2012-12-29T09:44:42Z</time>
      </trkpt>
      <trkpt lat="44.18993" lon="0.61266">
        <ele>43.4</ele>
        <time>2012-12-29T09:44:57Z</time>
      </trkpt>
      <trkpt lat="44.19017" lon="0.6126">
        <ele>43.88</ele>
        <time>2012-12-29T09:45:04Z</time>
      </trkpt>
      <trkpt lat="44.19021" lon="0.61273">
        <ele>43.88</ele>
        <time>2012-12-29T09:45:08Z</time>
      </trkpt>
      <trkpt lat="44.19018" lon="0.61297">
        <ele>44.84</ele>
        <time>2012-12-29T09:45:15Z</time>
      </trkpt>
      <trkpt lat="44.19009" lon="0.61311">
        <ele>45.32</ele>
        <time>2012-12-29T09:45:21Z</time>
      </trkpt>
      <trkpt lat="44.19006" lon="0.61318">
        <ele>44.84</ele>
        <time>2012-12-29T09:45:26Z</time>
      </trkpt>
      <trkpt lat="44.19004" lon="0.61323">
        <ele>44.84</ele>
        <time>2012-12-29T09:45:28Z</time>
      </trkpt>
      <trkpt lat="44.18994" lon="0.61323">
        <ele>44.36</ele>
        <time>2012-12-29T09:45:33Z</time>
      </trkpt>
      <trkpt lat="44.18951" lon="0.61325">
        <ele>43.88</ele>
        <time>2012-12-29T09:45:46Z</time>
      </trkpt>
      <trkpt lat="44.18947" lon="0.61326">
        <ele>44.36</ele>
        <time>2012-12-29T09:45:47Z</time>
      </trkpt>
      <trkpt lat="44.18882" lon="0.61339">
        <ele>44.36</ele>
        <time>2012-12-29T09:46:00Z</time>
      </trkpt>
      <trkpt lat="44.18873" lon="0.61369">
        <ele>43.4</ele>
        <time>2012-12-29T09:46:06Z</time>
      </trkpt>
      <trkpt lat="44.18867" lon="0.61436">
        <ele>44.36</ele>
        <time>2012-12-29T09:46:18Z</time>
      </trkpt>
      <trkpt lat="44.18837" lon="0.61445">
        <ele>45.32</ele>
        <time>2012-12-29T09:46:28Z</time>
      </trkpt>
      <trkpt lat="44.18842" lon="0.61461">
        <ele>44.84</ele>
        <time>2012-12-29T09:46:37Z</time>
      </trkpt>
      <trkpt lat="44.18843" lon="0.61461">
        <ele>40.51</ele>
        <time>2012-12-29T09:46:45Z</time>
      </trkpt>
      <trkpt lat="44.18843" lon="0.61461">
        <ele>42.44</ele>
        <time>2012-12-29T09:46:46Z</time>
      </trkpt>
      <trkpt lat="44.18843" lon="0.61461">
        <ele>45.8</ele>
        <time>2012-12-29T09:46:47Z</time>
      </trkpt>
      <trkpt lat="44.18843" lon="0.61461">
        <ele>45.32</ele>
        <time>2012-12-29T09:46:48Z</time>
      </trkpt>
    </trkseg>
  </trk>
</gpx>